<?xml version='1.0' encoding='UTF-8'?><gpx version="1.1" creator="JPX - https://github.com/jenetics/jpx" xmlns="http://www.topografix.com/GPX/1/1"><trk><trkseg><trkpt lat="52.40301565694718" lon="10.776360892692194"><ele>81.0</ele><time>2026-03-24T17:52:52.986Z</time></trkpt><trkpt lat="52.40300818736708" lon="10.77646621751866"><ele>81.0</ele><time>2026-03-24T17:52:55.988Z</time></trkpt><trkpt lat="52.40300418714457" lon="10.776575319848975"><ele>81.0</ele><time>2026-03-24T17:52:58.99Z</time></trkpt><trkpt lat="52.40300282286894" lon="10.776678793742942"><ele>81.0</ele><time>2026-03-24T17:53:01.992Z</time></trkpt><trkpt lat="52.40300940598265" lon="10.776798653648466"><ele>81.0</ele><time>2026-03-24T17:53:06.995Z</time></trkpt><trkpt lat="52.4030161171446" lon="10.776920331730944"><ele>81.0</ele><time>2026-03-24T17:53:11.996Z</time></trkpt><trkpt lat="52.40303917021805" lon="10.777026804523851"><ele>81.0</ele><time>2026-03-24T17:53:14.997Z</time></trkpt><trkpt lat="52.40310718121193" lon="10.777067037648902"><ele>81.33333333333333</ele><time>2026-03-24T17:53:18.998Z</time></trkpt><trkpt lat="52.40316858864442" lon="10.777096485757921"><ele>81.66666666666667</ele><time>2026-03-24T17:53:21.998Z</time></trkpt><trkpt lat="52.40323763664082" lon="10.77711473137809"><ele>82.0</ele><time>2026-03-24T17:53:24.998Z</time></trkpt><trkpt lat="52.40332135886979" lon="10.777156251831506"><ele>82.33333333333334</ele><time>2026-03-24T17:53:27.999Z</time></trkpt><trkpt lat="52.40341044439244" lon="10.777197551062498"><ele>82.66666666666667</ele><time>2026-03-24T17:53:30.999Z</time></trkpt><trkpt lat="52.40347876757732" lon="10.77722641984474"><ele>83.0</ele><time>2026-03-24T17:53:32.999Z</time></trkpt><trkpt lat="52.403552339528304" lon="10.777263583364741"><ele>83.0</ele><time>2026-03-24T17:53:34.999Z</time></trkpt><trkpt lat="52.40363086777999" lon="10.777290067935748"><ele>83.0</ele><time>2026-03-24T17:53:36.999Z</time></trkpt><trkpt lat="52.403720089320466" lon="10.77731867778102"><ele>83.0</ele><time>2026-03-24T17:53:38.999Z</time></trkpt><trkpt lat="52.40381379043535" lon="10.777349005228942"><ele>83.0</ele><time>2026-03-24T17:53:41Z</time></trkpt><trkpt lat="52.403906738123744" lon="10.777369532978035"><ele>83.0</ele><time>2026-03-24T17:53:43Z</time></trkpt><trkpt lat="52.40400429530304" lon="10.77739366199236"><ele>82.4</ele><time>2026-03-24T17:53:45Z</time></trkpt><trkpt lat="52.40410334152468" lon="10.777410554439912"><ele>81.80000000000001</ele><time>2026-03-24T17:53:47Z</time></trkpt><trkpt lat="52.40419871909567" lon="10.777426842514158"><ele>81.2</ele><time>2026-03-24T17:53:49Z</time></trkpt><trkpt lat="52.40429685826842" lon="10.777432960248587"><ele>80.6</ele><time>2026-03-24T17:53:51Z</time></trkpt><trkpt lat="52.40439080516877" lon="10.777438121511098"><ele>80.0</ele><time>2026-03-24T17:53:53Z</time></trkpt><trkpt lat="52.404488160997204" lon="10.777433499943267"><ele>80.0</ele><time>2026-03-24T17:53:55Z</time></trkpt><trkpt lat="52.404583815737716" lon="10.777438592066042"><ele>80.0</ele><time>2026-03-24T17:53:57Z</time></trkpt><trkpt lat="52.40466963600056" lon="10.777442547910434"><ele>80.0</ele><time>2026-03-24T17:53:59Z</time></trkpt><trkpt lat="52.40474571050138" lon="10.777488073006108"><ele>80.0</ele><time>2026-03-24T17:54:01Z</time></trkpt><trkpt lat="52.404806486212166" lon="10.777626434325091"><ele>80.0</ele><time>2026-03-24T17:54:03Z</time></trkpt><trkpt lat="52.40483771995733" lon="10.777787663918486"><ele>79.6</ele><time>2026-03-24T17:54:05Z</time></trkpt><trkpt lat="52.40486250876385" lon="10.777948209526924"><ele>79.2</ele><time>2026-03-24T17:54:07Z</time></trkpt><trkpt lat="52.404895374368664" lon="10.778106744791739"><ele>78.8</ele><time>2026-03-24T17:54:09Z</time></trkpt><trkpt lat="52.404927995181595" lon="10.77826511842431"><ele>78.4</ele><time>2026-03-24T17:54:11Z</time></trkpt><trkpt lat="52.404968793721785" lon="10.77842601487684"><ele>78.0</ele><time>2026-03-24T17:54:13Z</time></trkpt><trkpt lat="52.405014069075946" lon="10.778584217660901"><ele>78.0</ele><time>2026-03-24T17:54:15Z</time></trkpt><trkpt lat="52.405058558405045" lon="10.778742767562735"><ele>78.0</ele><time>2026-03-24T17:54:17Z</time></trkpt><trkpt lat="52.405107351213424" lon="10.77889242459568"><ele>78.0</ele><time>2026-03-24T17:54:19Z</time></trkpt><trkpt lat="52.40515351886489" lon="10.779044279210737"><ele>78.0</ele><time>2026-03-24T17:54:21Z</time></trkpt><trkpt lat="52.40520967521463" lon="10.779192601211987"><ele>78.0</ele><time>2026-03-24T17:54:23Z</time></trkpt><trkpt lat="52.405266142980864" lon="10.779342685706297"><ele>78.0</ele><time>2026-03-24T17:54:25Z</time></trkpt><trkpt lat="52.40532113807201" lon="10.779500310902199"><ele>78.0</ele><time>2026-03-24T17:54:27Z</time></trkpt><trkpt lat="52.40537701986539" lon="10.779658895021786"><ele>78.0</ele><time>2026-03-24T17:54:29Z</time></trkpt><trkpt lat="52.405436542022244" lon="10.77980992689406"><ele>78.0</ele><time>2026-03-24T17:54:31Z</time></trkpt><trkpt lat="52.40549347896958" lon="10.779965027533514"><ele>78.0</ele><time>2026-03-24T17:54:33Z</time></trkpt><trkpt lat="52.405552594332065" lon="10.780115410049758"><ele>78.2</ele><time>2026-03-24T17:54:35Z</time></trkpt><trkpt lat="52.40560472681723" lon="10.780272212372203"><ele>78.4</ele><time>2026-03-24T17:54:37Z</time></trkpt><trkpt lat="52.40565368280913" lon="10.780428537985044"><ele>78.60000000000001</ele><time>2026-03-24T17:54:39Z</time></trkpt><trkpt lat="52.40570579815212" lon="10.780583001207473"><ele>78.8</ele><time>2026-03-24T17:54:41Z</time></trkpt><trkpt lat="52.40575220547924" lon="10.780719722893332"><ele>79.0</ele><time>2026-03-24T17:54:43Z</time></trkpt><trkpt lat="52.4057935355095" lon="10.780866890497972"><ele>79.0</ele><time>2026-03-24T17:54:45Z</time></trkpt><trkpt lat="52.40583722202618" lon="10.78101624769475"><ele>79.0</ele><time>2026-03-24T17:54:47Z</time></trkpt><trkpt lat="52.40587983799131" lon="10.781163256485815"><ele>79.0</ele><time>2026-03-24T17:54:49Z</time></trkpt><trkpt lat="52.40592731772525" lon="10.781307533177017"><ele>79.0</ele><time>2026-03-24T17:54:51Z</time></trkpt><trkpt lat="52.40596362090071" lon="10.781461170991188"><ele>79.0</ele><time>2026-03-24T17:54:53Z</time></trkpt><trkpt lat="52.4060048053505" lon="10.781611464753233"><ele>79.0</ele><time>2026-03-24T17:54:55Z</time></trkpt><trkpt lat="52.40604418363367" lon="10.781769564291654"><ele>79.0</ele><time>2026-03-24T17:54:57Z</time></trkpt><trkpt lat="52.40607599805342" lon="10.781925309420812"><ele>79.0</ele><time>2026-03-24T17:54:59.001Z</time></trkpt><trkpt lat="52.40611080107871" lon="10.782077731494734"><ele>79.0</ele><time>2026-03-24T17:55:01.001Z</time></trkpt><trkpt lat="52.40614049026939" lon="10.78223734179028"><ele>79.0</ele><time>2026-03-24T17:55:03.001Z</time></trkpt><trkpt lat="52.406168467161784" lon="10.782397423569597"><ele>79.0</ele><time>2026-03-24T17:55:05.001Z</time></trkpt><trkpt lat="52.40622265902734" lon="10.782512174723458"><ele>79.0</ele><time>2026-03-24T17:55:07Z</time></trkpt><trkpt lat="52.40631109776944" lon="10.782550353006751"><ele>79.0</ele><time>2026-03-24T17:55:09Z</time></trkpt><trkpt lat="52.40640617291627" lon="10.782548102962332"><ele>79.0</ele><time>2026-03-24T17:55:11Z</time></trkpt><trkpt lat="52.406501735211705" lon="10.782517308336207"><ele>79.0</ele><time>2026-03-24T17:55:13Z</time></trkpt><trkpt lat="52.40661018987537" lon="10.782485337489746"><ele>79.0</ele><time>2026-03-24T17:55:15Z</time></trkpt><trkpt lat="52.4067288590597" lon="10.78243626503535"><ele>79.0</ele><time>2026-03-24T17:55:17Z</time></trkpt><trkpt lat="52.406843083763604" lon="10.782378354176585"><ele>79.0</ele><time>2026-03-24T17:55:19Z</time></trkpt><trkpt lat="52.40694156653033" lon="10.78233288939237"><ele>79.0</ele><time>2026-03-24T17:55:21Z</time></trkpt><trkpt lat="52.407047487690576" lon="10.78229832545476"><ele>79.0</ele><time>2026-03-24T17:55:23Z</time></trkpt><trkpt lat="52.40715294383969" lon="10.782229119131488"><ele>79.0</ele><time>2026-03-24T17:55:25Z</time></trkpt><trkpt lat="52.407257430376035" lon="10.782145073536515"><ele>79.0</ele><time>2026-03-24T17:55:27Z</time></trkpt><trkpt lat="52.40736992393807" lon="10.782074063112903"><ele>79.0</ele><time>2026-03-24T17:55:29Z</time></trkpt><trkpt lat="52.40747669497294" lon="10.781999532739723"><ele>78.60000000000001</ele><time>2026-03-24T17:55:31Z</time></trkpt><trkpt lat="52.40757857791365" lon="10.78191636471553"><ele>78.2</ele><time>2026-03-24T17:55:33Z</time></trkpt><trkpt lat="52.40767342386991" lon="10.781842595577949"><ele>77.80000000000001</ele><time>2026-03-24T17:55:35Z</time></trkpt><trkpt lat="52.40776905163788" lon="10.78176309702549"><ele>77.4</ele><time>2026-03-24T17:55:37Z</time></trkpt><trkpt lat="52.407871401651335" lon="10.781701751852372"><ele>77.0</ele><time>2026-03-24T17:55:39Z</time></trkpt><trkpt lat="52.40796554644084" lon="10.781625013811695"><ele>77.0</ele><time>2026-03-24T17:55:41Z</time></trkpt><trkpt lat="52.408058976725684" lon="10.781530170243501"><ele>77.0</ele><time>2026-03-24T17:55:43Z</time></trkpt><trkpt lat="52.4081491038157" lon="10.781423622258858"><ele>77.0</ele><time>2026-03-24T17:55:45Z</time></trkpt><trkpt lat="52.40823319023914" lon="10.781293080245424"><ele>77.0</ele><time>2026-03-24T17:55:47Z</time></trkpt><trkpt lat="52.40830163890777" lon="10.781137796809578"><ele>77.0</ele><time>2026-03-24T17:55:49Z</time></trkpt><trkpt lat="52.408387938414" lon="10.781020437237302"><ele>77.0</ele><time>2026-03-24T17:55:51Z</time></trkpt><trkpt lat="52.40846242521068" lon="10.780898040325896"><ele>77.0</ele><time>2026-03-24T17:55:53Z</time></trkpt><trkpt lat="52.40853125115784" lon="10.780781450180504"><ele>77.0</ele><time>2026-03-24T17:55:55Z</time></trkpt><trkpt lat="52.408603611229886" lon="10.780659536243546"><ele>77.0</ele><time>2026-03-24T17:55:57Z</time></trkpt><trkpt lat="52.40867254677009" lon="10.780533534896849"><ele>76.2</ele><time>2026-03-24T17:55:59Z</time></trkpt><trkpt lat="52.40873917200596" lon="10.78040997568407"><ele>75.4</ele><time>2026-03-24T17:56:01Z</time></trkpt><trkpt lat="52.408817647130014" lon="10.780312286101838"><ele>74.6</ele><time>2026-03-24T17:56:03Z</time></trkpt><trkpt lat="52.40890979381999" lon="10.780255487522176"><ele>73.8</ele><time>2026-03-24T17:56:05Z</time></trkpt><trkpt lat="52.40900450512435" lon="10.78023671144108"><ele>73.0</ele><time>2026-03-24T17:56:07Z</time></trkpt><trkpt lat="52.409098924780146" lon="10.78024050404157"><ele>73.0</ele><time>2026-03-24T17:56:09Z</time></trkpt><trkpt lat="52.409193416804975" lon="10.780250220378777"><ele>73.0</ele><time>2026-03-24T17:56:11Z</time></trkpt><trkpt lat="52.40929002646263" lon="10.78026160318545"><ele>73.0</ele><time>2026-03-24T17:56:13Z</time></trkpt><trkpt lat="52.40938606059686" lon="10.780302099277016"><ele>73.0</ele><time>2026-03-24T17:56:15Z</time></trkpt><trkpt lat="52.409479900792284" lon="10.780360486379642"><ele>73.0</ele><time>2026-03-24T17:56:17Z</time></trkpt><trkpt lat="52.40957407721718" lon="10.780413105427385"><ele>73.8</ele><time>2026-03-24T17:56:19Z</time></trkpt><trkpt lat="52.40966466029754" lon="10.780469902225573"><ele>74.6</ele><time>2026-03-24T17:56:21Z</time></trkpt><trkpt lat="52.409754028426214" lon="10.780514739411368"><ele>75.4</ele><time>2026-03-24T17:56:23Z</time></trkpt><trkpt lat="52.40985161449501" lon="10.780566325838748"><ele>76.2</ele><time>2026-03-24T17:56:25Z</time></trkpt><trkpt lat="52.40995133544774" lon="10.780622937436037"><ele>77.0</ele><time>2026-03-24T17:56:27Z</time></trkpt><trkpt lat="52.41005359314029" lon="10.78068650734428"><ele>77.0</ele><time>2026-03-24T17:56:29Z</time></trkpt><trkpt lat="52.410157940016816" lon="10.780755082110284"><ele>77.0</ele><time>2026-03-24T17:56:31Z</time></trkpt><trkpt lat="52.41026127963631" lon="10.780820526569038"><ele>77.0</ele><time>2026-03-24T17:56:33Z</time></trkpt><trkpt lat="52.41036461344847" lon="10.780888035805763"><ele>77.0</ele><time>2026-03-24T17:56:34.999Z</time></trkpt><trkpt lat="52.41046770208931" lon="10.780958159967554"><ele>77.0</ele><time>2026-03-24T17:56:36.999Z</time></trkpt><trkpt lat="52.410572245806165" lon="10.781026732878317"><ele>78.8</ele><time>2026-03-24T17:56:38.999Z</time></trkpt><trkpt lat="52.410676296306846" lon="10.781100956950697"><ele>80.6</ele><time>2026-03-24T17:56:40.999Z</time></trkpt><trkpt lat="52.41078052795328" lon="10.781157489073694"><ele>82.39999999999999</ele><time>2026-03-24T17:56:42.999Z</time></trkpt><trkpt lat="52.41088646257637" lon="10.781225659064573"><ele>84.2</ele><time>2026-03-24T17:56:44.999Z</time></trkpt><trkpt lat="52.41099057903105" lon="10.781285941993449"><ele>86.0</ele><time>2026-03-24T17:56:46.999Z</time></trkpt><trkpt lat="52.41109072111019" lon="10.78135128136305"><ele>86.0</ele><time>2026-03-24T17:56:48.999Z</time></trkpt><trkpt lat="52.41118489761325" lon="10.781419822403745"><ele>86.0</ele><time>2026-03-24T17:56:50.999Z</time></trkpt><trkpt lat="52.41127692726829" lon="10.781477831410315"><ele>86.0</ele><time>2026-03-24T17:56:52.999Z</time></trkpt><trkpt lat="52.411359233862015" lon="10.781551252703037"><ele>86.0</ele><time>2026-03-24T17:56:54.999Z</time></trkpt><trkpt lat="52.41144901857994" lon="10.781588912030418"><ele>86.0</ele><time>2026-03-24T17:56:56.999Z</time></trkpt><trkpt lat="52.41154103546172" lon="10.781676524816206"><ele>85.33333333333334</ele><time>2026-03-24T17:56:58.999Z</time></trkpt><trkpt lat="52.41165515007989" lon="10.781722968708756"><ele>84.66666666666667</ele><time>2026-03-24T17:57:00.999Z</time></trkpt><trkpt lat="52.41170605531578" lon="10.78178511181543"><ele>84.0</ele><time>2026-03-24T17:57:01.999Z</time></trkpt><trkpt lat="52.41182561368011" lon="10.781831500277015"><ele>83.33333333333333</ele><time>2026-03-24T17:57:04Z</time></trkpt><trkpt lat="52.41189003323594" lon="10.78187082181754"><ele>82.66666666666666</ele><time>2026-03-24T17:57:05Z</time></trkpt><trkpt lat="52.411948123741496" lon="10.781911459968956"><ele>82.0</ele><time>2026-03-24T17:57:06Z</time></trkpt><trkpt lat="52.41206368157594" lon="10.781998398846671"><ele>81.99999999999999</ele><time>2026-03-24T17:57:08Z</time></trkpt><trkpt lat="52.412123052362325" lon="10.78203946602795"><ele>82.0</ele><time>2026-03-24T17:57:09Z</time></trkpt><trkpt lat="52.41218414928809" lon="10.782083465259126"><ele>82.0</ele><time>2026-03-24T17:57:10Z</time></trkpt><trkpt lat="52.41224610618797" lon="10.782126979487138"><ele>82.0</ele><time>2026-03-24T17:57:11Z</time></trkpt><trkpt lat="52.41230713862841" lon="10.782169185101314"><ele>82.0</ele><time>2026-03-24T17:57:12Z</time></trkpt><trkpt lat="52.41236699571711" lon="10.782210461516732"><ele>81.99999999999999</ele><time>2026-03-24T17:57:13Z</time></trkpt><trkpt lat="52.412426920465805" lon="10.782254532667695"><ele>82.0</ele><time>2026-03-24T17:57:14Z</time></trkpt><trkpt lat="52.41248553058886" lon="10.782292919442908"><ele>80.0</ele><time>2026-03-24T17:57:15Z</time></trkpt><trkpt lat="52.412597501779466" lon="10.78237450512611"><ele>78.0</ele><time>2026-03-24T17:57:17Z</time></trkpt><trkpt lat="52.41270866789318" lon="10.782455081967319"><ele>76.0</ele><time>2026-03-24T17:57:19Z</time></trkpt><trkpt lat="52.41280904906768" lon="10.782524965680887"><ele>74.0</ele><time>2026-03-24T17:57:21Z</time></trkpt><trkpt lat="52.41288122022157" lon="10.782620224298846"><ele>72.0</ele><time>2026-03-24T17:57:23Z</time></trkpt><trkpt lat="52.41295121855262" lon="10.782626317926214"><ele>72.5</ele><time>2026-03-24T17:57:25Z</time></trkpt><trkpt lat="52.41289289261884" lon="10.782870567677644"><ele>73.0</ele><time>2026-03-24T17:57:27Z</time></trkpt><trkpt lat="52.41284377935837" lon="10.783007174600968"><ele>73.5</ele><time>2026-03-24T17:57:29Z</time></trkpt><trkpt lat="52.41279928215767" lon="10.783169060314158"><ele>74.0</ele><time>2026-03-24T17:57:31Z</time></trkpt><trkpt lat="52.412761735433904" lon="10.783341452710292"><ele>74.0</ele><time>2026-03-24T17:57:33Z</time></trkpt><trkpt lat="52.412720111348705" lon="10.783512427683082"><ele>74.0</ele><time>2026-03-24T17:57:35Z</time></trkpt><trkpt lat="52.412684533080125" lon="10.783690613416146"><ele>74.0</ele><time>2026-03-24T17:57:37Z</time></trkpt><trkpt lat="52.412650477759975" lon="10.783870219035919"><ele>74.0</ele><time>2026-03-24T17:57:39Z</time></trkpt><trkpt lat="52.41261736752195" lon="10.784049366971399"><ele>74.0</ele><time>2026-03-24T17:57:41Z</time></trkpt><trkpt lat="52.412596459166274" lon="10.784235843505238"><ele>74.0</ele><time>2026-03-24T17:57:43Z</time></trkpt><trkpt lat="52.412575098588675" lon="10.784418684113403"><ele>74.0</ele><time>2026-03-24T17:57:45Z</time></trkpt><trkpt lat="52.41255360996311" lon="10.784603064762962"><ele>74.0</ele><time>2026-03-24T17:57:47Z</time></trkpt><trkpt lat="52.4125132819818" lon="10.784777103390331"><ele>73.8</ele><time>2026-03-24T17:57:49Z</time></trkpt><trkpt lat="52.41248605318" lon="10.784955885518395"><ele>73.60000000000001</ele><time>2026-03-24T17:57:51Z</time></trkpt><trkpt lat="52.412460764917626" lon="10.785135043366035"><ele>73.4</ele><time>2026-03-24T17:57:53Z</time></trkpt><trkpt lat="52.412439849271934" lon="10.785316504381052"><ele>73.2</ele><time>2026-03-24T17:57:55Z</time></trkpt><trkpt lat="52.41241683822744" lon="10.785494969153318"><ele>73.0</ele><time>2026-03-24T17:57:57Z</time></trkpt><trkpt lat="52.41239418367329" lon="10.785675777600586"><ele>72.6</ele><time>2026-03-24T17:57:59Z</time></trkpt><trkpt lat="52.41237300042989" lon="10.785853551361141"><ele>72.19999999999999</ele><time>2026-03-24T17:58:01Z</time></trkpt><trkpt lat="52.41235136846141" lon="10.786031335074735"><ele>71.8</ele><time>2026-03-24T17:58:03Z</time></trkpt><trkpt lat="52.41233180488768" lon="10.786207405127563"><ele>71.39999999999999</ele><time>2026-03-24T17:58:05Z</time></trkpt><trkpt lat="52.412310433028004" lon="10.786385095916334"><ele>71.0</ele><time>2026-03-24T17:58:07Z</time></trkpt><trkpt lat="52.412287392497326" lon="10.786563209086104"><ele>71.0</ele><time>2026-03-24T17:58:09Z</time></trkpt><trkpt lat="52.41226552818221" lon="10.786736328139193"><ele>71.0</ele><time>2026-03-24T17:58:11Z</time></trkpt><trkpt lat="52.41224215913313" lon="10.786910340284347"><ele>71.0</ele><time>2026-03-24T17:58:13Z</time></trkpt><trkpt lat="52.41222307406804" lon="10.787081858061562"><ele>71.0</ele><time>2026-03-24T17:58:15Z</time></trkpt><trkpt lat="52.41220464199722" lon="10.787253183286776"><ele>71.0</ele><time>2026-03-24T17:58:17Z</time></trkpt><trkpt lat="52.41218412552347" lon="10.787426729679527"><ele>71.0</ele><time>2026-03-24T17:58:19Z</time></trkpt><trkpt lat="52.41216251658001" lon="10.787600245593875"><ele>71.0</ele><time>2026-03-24T17:58:21Z</time></trkpt><trkpt lat="52.41213912141213" lon="10.787782504940965"><ele>71.0</ele><time>2026-03-24T17:58:23Z</time></trkpt><trkpt lat="52.41211862390883" lon="10.78796967362178"><ele>71.0</ele><time>2026-03-24T17:58:25Z</time></trkpt><trkpt lat="52.41209570102697" lon="10.788157162098743"><ele>71.2</ele><time>2026-03-24T17:58:27Z</time></trkpt><trkpt lat="52.412076660177306" lon="10.788343062358827"><ele>71.39999999999999</ele><time>2026-03-24T17:58:29Z</time></trkpt><trkpt lat="52.41205137099311" lon="10.78852293008182"><ele>71.6</ele><time>2026-03-24T17:58:31Z</time></trkpt><trkpt lat="52.41204719821203" lon="10.788692167859578"><ele>71.8</ele><time>2026-03-24T17:58:33Z</time></trkpt><trkpt lat="52.41210683610061" lon="10.788814854525288"><ele>72.0</ele><time>2026-03-24T17:58:34.999Z</time></trkpt><trkpt lat="52.41220186041815" lon="10.788864370778267"><ele>72.0</ele><time>2026-03-24T17:58:36.999Z</time></trkpt><trkpt lat="52.41230127233849" lon="10.788899757028195"><ele>72.0</ele><time>2026-03-24T17:58:38.999Z</time></trkpt><trkpt lat="52.41240507897238" lon="10.788932040850613"><ele>72.0</ele><time>2026-03-24T17:58:40.999Z</time></trkpt><trkpt lat="52.41251077464402" lon="10.788960922988004"><ele>72.0</ele><time>2026-03-24T17:58:42.999Z</time></trkpt><trkpt lat="52.41262139527527" lon="10.788988296337102"><ele>72.0</ele><time>2026-03-24T17:58:44.999Z</time></trkpt><trkpt lat="52.41272794616655" lon="10.789009960767265"><ele>72.0</ele><time>2026-03-24T17:58:46.999Z</time></trkpt><trkpt lat="52.41283292377602" lon="10.789046340057439"><ele>72.0</ele><time>2026-03-24T17:58:48.999Z</time></trkpt><trkpt lat="52.41293679309989" lon="10.789078248930604"><ele>72.0</ele><time>2026-03-24T17:58:50.999Z</time></trkpt><trkpt lat="52.41304110327307" lon="10.78910119565994"><ele>72.0</ele><time>2026-03-24T17:58:52.999Z</time></trkpt><trkpt lat="52.41314412319481" lon="10.789136807867669"><ele>72.0</ele><time>2026-03-24T17:58:54.999Z</time></trkpt><trkpt lat="52.41324769715822" lon="10.789165354320724"><ele>71.8</ele><time>2026-03-24T17:58:56.999Z</time></trkpt><trkpt lat="52.41335428773643" lon="10.789195365182492"><ele>71.6</ele><time>2026-03-24T17:58:58.999Z</time></trkpt><trkpt lat="52.413459874077816" lon="10.789227858657569"><ele>71.39999999999999</ele><time>2026-03-24T17:59:00.999Z</time></trkpt><trkpt lat="52.413559955182336" lon="10.78927256235994"><ele>71.2</ele><time>2026-03-24T17:59:02.999Z</time></trkpt><trkpt lat="52.41366660146862" lon="10.789312567339739"><ele>71.0</ele><time>2026-03-24T17:59:04.999Z</time></trkpt><trkpt lat="52.41377336424918" lon="10.789333068583916"><ele>71.0</ele><time>2026-03-24T17:59:06.999Z</time></trkpt><trkpt lat="52.41388149366759" lon="10.789332013901996"><ele>71.0</ele><time>2026-03-24T17:59:08.999Z</time></trkpt><trkpt lat="52.41398294989816" lon="10.789358579936588"><ele>71.0</ele><time>2026-03-24T17:59:11Z</time></trkpt><trkpt lat="52.41408664690375" lon="10.789389568474002"><ele>71.0</ele><time>2026-03-24T17:59:13Z</time></trkpt><trkpt lat="52.41419067828138" lon="10.789411662331107"><ele>71.0</ele><time>2026-03-24T17:59:15Z</time></trkpt><trkpt lat="52.41429655140088" lon="10.789431549241973"><ele>71.0</ele><time>2026-03-24T17:59:17Z</time></trkpt><trkpt lat="52.414402556649684" lon="10.789445112003522"><ele>71.0</ele><time>2026-03-24T17:59:19Z</time></trkpt><trkpt lat="52.41450774566158" lon="10.789460305972446"><ele>71.0</ele><time>2026-03-24T17:59:21Z</time></trkpt><trkpt lat="52.41461310327339" lon="10.789479075476846"><ele>71.0</ele><time>2026-03-24T17:59:23Z</time></trkpt><trkpt lat="52.41471868411773" lon="10.789493351872192"><ele>71.0</ele><time>2026-03-24T17:59:25Z</time></trkpt><trkpt lat="52.41482523942433" lon="10.789510211276"><ele>71.0</ele><time>2026-03-24T17:59:27Z</time></trkpt><trkpt lat="52.41492978520032" lon="10.789524421083884"><ele>71.0</ele><time>2026-03-24T17:59:29Z</time></trkpt><trkpt lat="52.41503328770008" lon="10.789547448491978"><ele>71.0</ele><time>2026-03-24T17:59:31Z</time></trkpt><trkpt lat="52.41514129624536" lon="10.789561954171965"><ele>71.0</ele><time>2026-03-24T17:59:33Z</time></trkpt><trkpt lat="52.41524474529882" lon="10.789594968293361"><ele>71.0</ele><time>2026-03-24T17:59:35Z</time></trkpt><trkpt lat="52.41534860496271" lon="10.789638923701906"><ele>71.0</ele><time>2026-03-24T17:59:37Z</time></trkpt><trkpt lat="52.415455242247695" lon="10.789636669723912"><ele>71.0</ele><time>2026-03-24T17:59:39Z</time></trkpt><trkpt lat="52.41556264153426" lon="10.789646474569581"><ele>71.0</ele><time>2026-03-24T17:59:41Z</time></trkpt><trkpt lat="52.41567223197882" lon="10.789653682384875"><ele>71.0</ele><time>2026-03-24T17:59:43Z</time></trkpt><trkpt lat="52.41577778775955" lon="10.789657124294031"><ele>71.0</ele><time>2026-03-24T17:59:45Z</time></trkpt><trkpt lat="52.41587908249028" lon="10.789667069837442"><ele>71.0</ele><time>2026-03-24T17:59:47Z</time></trkpt><trkpt lat="52.41598131097991" lon="10.78969014746994"><ele>71.0</ele><time>2026-03-24T17:59:49Z</time></trkpt><trkpt lat="52.41608290568248" lon="10.789713942791845"><ele>71.0</ele><time>2026-03-24T17:59:51Z</time></trkpt><trkpt lat="52.4161821689933" lon="10.789736021076285"><ele>71.0</ele><time>2026-03-24T17:59:53Z</time></trkpt><trkpt lat="52.4162779003613" lon="10.789766576074229"><ele>71.0</ele><time>2026-03-24T17:59:55Z</time></trkpt><trkpt lat="52.41637345096234" lon="10.789785649645273"><ele>71.0</ele><time>2026-03-24T17:59:57Z</time></trkpt><trkpt lat="52.41645801579661" lon="10.78983133162682"><ele>71.0</ele><time>2026-03-24T17:59:59Z</time></trkpt><trkpt lat="52.41648783895409" lon="10.789971553595269"><ele>71.0</ele><time>2026-03-24T18:00:01Z</time></trkpt><trkpt lat="52.41647900331342" lon="10.790117251926752"><ele>71.0</ele><time>2026-03-24T18:00:03Z</time></trkpt><trkpt lat="52.41649506131296" lon="10.790270710197097"><ele>71.0</ele><time>2026-03-24T18:00:05Z</time></trkpt><trkpt lat="52.416495490514734" lon="10.790433514370156"><ele>70.8</ele><time>2026-03-24T18:00:07Z</time></trkpt><trkpt lat="52.41649593475572" lon="10.79060202546073"><ele>70.6</ele><time>2026-03-24T18:00:09Z</time></trkpt><trkpt lat="52.416496386418125" lon="10.790773349503015"><ele>70.4</ele><time>2026-03-24T18:00:11Z</time></trkpt><trkpt lat="52.41646456399264" lon="10.790954703567323"><ele>70.2</ele><time>2026-03-24T18:00:13Z</time></trkpt><trkpt lat="52.41646179509443" lon="10.791147383869234"><ele>70.0</ele><time>2026-03-24T18:00:15Z</time></trkpt><trkpt lat="52.41646329742569" lon="10.791339740375445"><ele>70.0</ele><time>2026-03-24T18:00:17Z</time></trkpt><trkpt lat="52.41646341224524" lon="10.79144300027031"><ele>70.0</ele><time>2026-03-24T18:00:18Z</time></trkpt><trkpt lat="52.416457768345516" lon="10.791653454481741"><ele>70.0</ele><time>2026-03-24T18:00:20Z</time></trkpt><trkpt lat="52.416455517343614" lon="10.791756618928316"><ele>70.0</ele><time>2026-03-24T18:00:21Z</time></trkpt><trkpt lat="52.41645123687804" lon="10.79194877750122"><ele>70.0</ele><time>2026-03-24T18:00:23Z</time></trkpt><trkpt lat="52.41644812425332" lon="10.792149507098104"><ele>69.6</ele><time>2026-03-24T18:00:25Z</time></trkpt><trkpt lat="52.416447144691645" lon="10.792356740981136"><ele>69.2</ele><time>2026-03-24T18:00:27Z</time></trkpt><trkpt lat="52.416442885258036" lon="10.792563389918117"><ele>68.8</ele><time>2026-03-24T18:00:29Z</time></trkpt><trkpt lat="52.416441598956375" lon="10.792669141045517"><ele>68.4</ele><time>2026-03-24T18:00:30Z</time></trkpt><trkpt lat="52.41644256523438" lon="10.79277348788907"><ele>68.0</ele><time>2026-03-24T18:00:31Z</time></trkpt><trkpt lat="52.416437200071755" lon="10.79297902929486"><ele>67.6</ele><time>2026-03-24T18:00:33Z</time></trkpt><trkpt lat="52.41643521858311" lon="10.793082977819864"><ele>67.19999999999999</ele><time>2026-03-24T18:00:33.999Z</time></trkpt><trkpt lat="52.41643322442044" lon="10.793187030684178"><ele>66.8</ele><time>2026-03-24T18:00:34.999Z</time></trkpt><trkpt lat="52.41642966211092" lon="10.793387377803542"><ele>66.39999999999999</ele><time>2026-03-24T18:00:36.999Z</time></trkpt><trkpt lat="52.41642479695892" lon="10.793584983729568"><ele>66.0</ele><time>2026-03-24T18:00:38.999Z</time></trkpt><trkpt lat="52.416421332916954" lon="10.793773944357008"><ele>65.39999999999999</ele><time>2026-03-24T18:00:40.999Z</time></trkpt><trkpt lat="52.41642105977261" lon="10.793965858222071"><ele>64.8</ele><time>2026-03-24T18:00:42.999Z</time></trkpt><trkpt lat="52.41641677664235" lon="10.794149266367615"><ele>64.19999999999999</ele><time>2026-03-24T18:00:44.999Z</time></trkpt><trkpt lat="52.41641499711108" lon="10.79431789920294"><ele>63.599999999999994</ele><time>2026-03-24T18:00:46.999Z</time></trkpt><trkpt lat="52.41641385117928" lon="10.794485908081997"><ele>63.0</ele><time>2026-03-24T18:00:48.999Z</time></trkpt><trkpt lat="52.416409840840274" lon="10.79464790282512"><ele>62.833333333333336</ele><time>2026-03-24T18:00:50.999Z</time></trkpt><trkpt lat="52.41641028718842" lon="10.794812851326707"><ele>62.66666666666667</ele><time>2026-03-24T18:00:52.999Z</time></trkpt><trkpt lat="52.41640703912123" lon="10.794963875548778"><ele>62.5</ele><time>2026-03-24T18:00:54.999Z</time></trkpt><trkpt lat="52.416403097244995" lon="10.79509858032483"><ele>62.333333333333336</ele><time>2026-03-24T18:00:56.999Z</time></trkpt><trkpt lat="52.416410753574254" lon="10.79522067808472"><ele>62.16666666666667</ele><time>2026-03-24T18:00:58.999Z</time></trkpt><trkpt lat="52.41641389919773" lon="10.795344414974972"><ele>62.0</ele><time>2026-03-24T18:01:00.999Z</time></trkpt><trkpt lat="52.41641410365206" lon="10.795473898186252"><ele>62.50000000000001</ele><time>2026-03-24T18:01:02.999Z</time></trkpt><trkpt lat="52.41641264029064" lon="10.7956135768723"><ele>63.0</ele><time>2026-03-24T18:01:04.999Z</time></trkpt><trkpt lat="52.41641317785675" lon="10.795747952640024"><ele>63.5</ele><time>2026-03-24T18:01:06.999Z</time></trkpt><trkpt lat="52.41642397589758" lon="10.795889755191098"><ele>64.0</ele><time>2026-03-24T18:01:08.999Z</time></trkpt><trkpt lat="52.41642261787659" lon="10.796037828516013"><ele>64.5</ele><time>2026-03-24T18:01:10.999Z</time></trkpt><trkpt lat="52.416446274110996" lon="10.796188202772983"><ele>65.0</ele><time>2026-03-24T18:01:12.999Z</time></trkpt><trkpt lat="52.41649538350953" lon="10.79632579495401"><ele>65.8</ele><time>2026-03-24T18:01:14.999Z</time></trkpt><trkpt lat="52.41654249979884" lon="10.796466757380358"><ele>66.6</ele><time>2026-03-24T18:01:17Z</time></trkpt><trkpt lat="52.41658450784854" lon="10.7966131200688"><ele>67.4</ele><time>2026-03-24T18:01:19Z</time></trkpt><trkpt lat="52.41663426985834" lon="10.79674733284872"><ele>68.2</ele><time>2026-03-24T18:01:21Z</time></trkpt><trkpt lat="52.416690042331474" lon="10.796881969352922"><ele>69.0</ele><time>2026-03-24T18:01:23Z</time></trkpt><trkpt lat="52.41674343618939" lon="10.797003807265567"><ele>69.5</ele><time>2026-03-24T18:01:25Z</time></trkpt><trkpt lat="52.41680047722469" lon="10.797128831872215"><ele>70.0</ele><time>2026-03-24T18:01:27Z</time></trkpt><trkpt lat="52.41685857823286" lon="10.797241408249102"><ele>70.5</ele><time>2026-03-24T18:01:29Z</time></trkpt><trkpt lat="52.416902703177094" lon="10.797348395269784"><ele>71.0</ele><time>2026-03-24T18:01:31Z</time></trkpt><trkpt lat="52.41693738736979" lon="10.797483934736041"><ele>71.5</ele><time>2026-03-24T18:01:33Z</time></trkpt><trkpt lat="52.417023308642605" lon="10.797513833974929"><ele>72.0</ele><time>2026-03-24T18:01:34Z</time></trkpt><trkpt lat="52.4170949122832" lon="10.797640951408127"><ele>71.0</ele><time>2026-03-24T18:01:36Z</time></trkpt><trkpt lat="52.41717182549494" lon="10.797743350874192"><ele>70.0</ele><time>2026-03-24T18:01:38Z</time></trkpt><trkpt lat="52.417246883186216" lon="10.79783854121257"><ele>69.0</ele><time>2026-03-24T18:01:40Z</time></trkpt><trkpt lat="52.41733147685481" lon="10.797947278812487"><ele>68.0</ele><time>2026-03-24T18:01:42Z</time></trkpt><trkpt lat="52.41740427699408" lon="10.79803767525095"><ele>67.0</ele><time>2026-03-24T18:01:44Z</time></trkpt><trkpt lat="52.417483798941255" lon="10.798147021830571"><ele>67.0</ele><time>2026-03-24T18:01:46Z</time></trkpt><trkpt lat="52.41755851328132" lon="10.798268015859051"><ele>67.0</ele><time>2026-03-24T18:01:48Z</time></trkpt><trkpt lat="52.417643974277304" lon="10.79835259683875"><ele>67.0</ele><time>2026-03-24T18:01:50Z</time></trkpt><trkpt lat="52.417722803954504" lon="10.798454577355377"><ele>67.0</ele><time>2026-03-24T18:01:52Z</time></trkpt><trkpt lat="52.41779485515846" lon="10.798548347879905"><ele>67.0</ele><time>2026-03-24T18:01:54Z</time></trkpt><trkpt lat="52.417887486477234" lon="10.798636068462287"><ele>67.2</ele><time>2026-03-24T18:01:56Z</time></trkpt><trkpt lat="52.41796935261488" lon="10.798724040238856"><ele>67.4</ele><time>2026-03-24T18:01:58Z</time></trkpt><trkpt lat="52.41805433079859" lon="10.798815672955376"><ele>67.6</ele><time>2026-03-24T18:02:00Z</time></trkpt><trkpt lat="52.41813864853702" lon="10.798902420768659"><ele>67.8</ele><time>2026-03-24T18:02:02Z</time></trkpt><trkpt lat="52.41821804846618" lon="10.798987393522845"><ele>68.0</ele><time>2026-03-24T18:02:04Z</time></trkpt><trkpt lat="52.41830022948666" lon="10.799073897738573"><ele>67.8</ele><time>2026-03-24T18:02:06Z</time></trkpt><trkpt lat="52.41837796108166" lon="10.799161114417343"><ele>67.6</ele><time>2026-03-24T18:02:08Z</time></trkpt><trkpt lat="52.41845189646365" lon="10.799253355380765"><ele>67.4</ele><time>2026-03-24T18:02:10Z</time></trkpt><trkpt lat="52.41852557788671" lon="10.799340708558914"><ele>67.2</ele><time>2026-03-24T18:02:12Z</time></trkpt><trkpt lat="52.41860685122657" lon="10.799419509047956"><ele>67.0</ele><time>2026-03-24T18:02:14Z</time></trkpt><trkpt lat="52.41868690057534" lon="10.799497592252779"><ele>67.0</ele><time>2026-03-24T18:02:16Z</time></trkpt><trkpt lat="52.418759726694624" lon="10.799575668565879"><ele>67.0</ele><time>2026-03-24T18:02:18Z</time></trkpt><trkpt lat="52.418832956022655" lon="10.799648541282954"><ele>67.0</ele><time>2026-03-24T18:02:20Z</time></trkpt><trkpt lat="52.41890851572268" lon="10.799727976357632"><ele>67.0</ele><time>2026-03-24T18:02:22Z</time></trkpt><trkpt lat="52.41897491920368" lon="10.799822375262613"><ele>67.0</ele><time>2026-03-24T18:02:24Z</time></trkpt><trkpt lat="52.41902467804608" lon="10.799902041999744"><ele>67.0</ele><time>2026-03-24T18:02:26Z</time></trkpt><trkpt lat="52.41909736357784" lon="10.79998681545399"><ele>67.2</ele><time>2026-03-24T18:02:29Z</time></trkpt><trkpt lat="52.41916792769851" lon="10.799974347762348"><ele>67.4</ele><time>2026-03-24T18:02:31Z</time></trkpt><trkpt lat="52.41924545099051" lon="10.799956186317068"><ele>67.6</ele><time>2026-03-24T18:03:23Z</time></trkpt><trkpt lat="52.419330519360905" lon="10.800008831586798"><ele>67.8</ele><time>2026-03-24T18:03:26Z</time></trkpt><trkpt lat="52.419438701096276" lon="10.799922083299906"><ele>68.0</ele><time>2026-03-24T18:03:28Z</time></trkpt><trkpt lat="52.41952678152196" lon="10.799966864556934"><ele>68.0</ele><time>2026-03-24T18:03:30Z</time></trkpt><trkpt lat="52.41962319947779" lon="10.80001196156411"><ele>68.0</ele><time>2026-03-24T18:03:32Z</time></trkpt><trkpt lat="52.41971356190514" lon="10.80005014340927"><ele>68.0</ele><time>2026-03-24T18:03:34Z</time></trkpt><trkpt lat="52.41981876406074" lon="10.800088100372516"><ele>68.0</ele><time>2026-03-24T18:03:36Z</time></trkpt><trkpt lat="52.419928951751004" lon="10.800153253347682"><ele>68.0</ele><time>2026-03-24T18:03:38Z</time></trkpt><trkpt lat="52.42004664729143" lon="10.80017238154364"><ele>68.2</ele><time>2026-03-24T18:03:40Z</time></trkpt><trkpt lat="52.42016383643067" lon="10.800186183577331"><ele>68.4</ele><time>2026-03-24T18:03:42Z</time></trkpt><trkpt lat="52.420281212152425" lon="10.800207196115363"><ele>68.60000000000001</ele><time>2026-03-24T18:03:44Z</time></trkpt><trkpt lat="52.4204008413745" lon="10.800216870901266"><ele>68.8</ele><time>2026-03-24T18:03:46Z</time></trkpt><trkpt lat="52.42046394492724" lon="10.800218606705714"><ele>69.0</ele><time>2026-03-24T18:03:47Z</time></trkpt><trkpt lat="52.4205887009423" lon="10.80022770936981"><ele>69.14285714285714</ele><time>2026-03-24T18:03:49Z</time></trkpt><trkpt lat="52.42065374593556" lon="10.800228528088036"><ele>69.28571428571429</ele><time>2026-03-24T18:03:50Z</time></trkpt><trkpt lat="52.42071802959516" lon="10.800228432200816"><ele>69.42857142857143</ele><time>2026-03-24T18:03:51Z</time></trkpt><trkpt lat="52.420782385955754" lon="10.800222309625482"><ele>69.57142857142857</ele><time>2026-03-24T18:03:52Z</time></trkpt><trkpt lat="52.420850800995346" lon="10.80021130841629"><ele>69.71428571428572</ele><time>2026-03-24T18:03:53Z</time></trkpt><trkpt lat="52.42091584135835" lon="10.80020011484919"><ele>69.85714285714286</ele><time>2026-03-24T18:03:54Z</time></trkpt><trkpt lat="52.420981008643324" lon="10.800193138398921"><ele>70.0</ele><time>2026-03-24T18:03:55Z</time></trkpt><trkpt lat="52.42104540094123" lon="10.800191173533706"><ele>70.0</ele><time>2026-03-24T18:03:56Z</time></trkpt><trkpt lat="52.42111048285912" lon="10.800168611001686"><ele>70.0</ele><time>2026-03-24T18:03:57Z</time></trkpt><trkpt lat="52.42117618124182" lon="10.80014987340211"><ele>70.0</ele><time>2026-03-24T18:03:58Z</time></trkpt><trkpt lat="52.42124257102587" lon="10.800125644769954"><ele>70.0</ele><time>2026-03-24T18:03:59Z</time></trkpt><trkpt lat="52.4213064117714" lon="10.800103779863138"><ele>70.0</ele><time>2026-03-24T18:04:00Z</time></trkpt><trkpt lat="52.421374374290316" lon="10.800083751011384"><ele>70.0</ele><time>2026-03-24T18:04:01Z</time></trkpt><trkpt lat="52.4214376979376" lon="10.800057674418818"><ele>70.0</ele><time>2026-03-24T18:04:02Z</time></trkpt><trkpt lat="52.421501186934385" lon="10.80002932333667"><ele>70.0</ele><time>2026-03-24T18:04:03Z</time></trkpt><trkpt lat="52.42156625304397" lon="10.799998525232237"><ele>70.0</ele><time>2026-03-24T18:04:04Z</time></trkpt><trkpt lat="52.421632054098524" lon="10.799972605818203"><ele>70.0</ele><time>2026-03-24T18:04:05Z</time></trkpt><trkpt lat="52.4216914356118" lon="10.799921983709197"><ele>70.0</ele><time>2026-03-24T18:04:06Z</time></trkpt><trkpt lat="52.421752337107435" lon="10.79988723571889"><ele>70.0</ele><time>2026-03-24T18:04:07Z</time></trkpt><trkpt lat="52.421811976416066" lon="10.799853208012792"><ele>70.0</ele><time>2026-03-24T18:04:08Z</time></trkpt><trkpt lat="52.42191338908608" lon="10.799790649987722"><ele>70.0</ele><time>2026-03-24T18:04:10Z</time></trkpt><trkpt lat="52.422007544507856" lon="10.799731995535494"><ele>70.0</ele><time>2026-03-24T18:04:12Z</time></trkpt><trkpt lat="52.42209891854729" lon="10.799670067601562"><ele>70.0</ele><time>2026-03-24T18:04:14Z</time></trkpt><trkpt lat="52.42218079983035" lon="10.799613254424123"><ele>70.0</ele><time>2026-03-24T18:04:16Z</time></trkpt><trkpt lat="52.42225755694105" lon="10.799557956566357"><ele>70.0</ele><time>2026-03-24T18:04:18Z</time></trkpt><trkpt lat="52.422390565560725" lon="10.799625874266262"><ele>70.0</ele><time>2026-03-24T18:04:20Z</time></trkpt><trkpt lat="52.422462028612046" lon="10.799749128909092"><ele>68.75</ele><time>2026-03-24T18:04:22Z</time></trkpt><trkpt lat="52.4224358082791" lon="10.799990565404988"><ele>67.5</ele><time>2026-03-24T18:04:24Z</time></trkpt><trkpt lat="52.42242861444107" lon="10.800160919484528"><ele>66.25</ele><time>2026-03-24T18:04:26Z</time></trkpt><trkpt lat="52.422419795424865" lon="10.80033585132775"><ele>65.0</ele><time>2026-03-24T18:04:28Z</time></trkpt><trkpt lat="52.422411569186295" lon="10.800509042579275"><ele>65.0</ele><time>2026-03-24T18:04:30Z</time></trkpt><trkpt lat="52.42241024724461" lon="10.80068415581008"><ele>65.0</ele><time>2026-03-24T18:04:32Z</time></trkpt><trkpt lat="52.422405350342736" lon="10.800869289493013"><ele>65.0</ele><time>2026-03-24T18:04:34Z</time></trkpt><trkpt lat="52.422399341065145" lon="10.801058869568397"><ele>65.0</ele><time>2026-03-24T18:04:35.999Z</time></trkpt><trkpt lat="52.4223866564298" lon="10.801247126723425"><ele>64.8</ele><time>2026-03-24T18:04:37.999Z</time></trkpt><trkpt lat="52.42237550089404" lon="10.801424405977412"><ele>64.6</ele><time>2026-03-24T18:04:39.999Z</time></trkpt><trkpt lat="52.42236918748624" lon="10.801604583626327"><ele>64.4</ele><time>2026-03-24T18:04:41.999Z</time></trkpt><trkpt lat="52.42236282357101" lon="10.801786203044207"><ele>64.2</ele><time>2026-03-24T18:04:43.999Z</time></trkpt><trkpt lat="52.42235667382318" lon="10.801964400409636"><ele>64.0</ele><time>2026-03-24T18:04:45.999Z</time></trkpt><trkpt lat="52.42235008998775" lon="10.802142299771095"><ele>63.800000000000004</ele><time>2026-03-24T18:04:47.999Z</time></trkpt><trkpt lat="52.422342109111135" lon="10.802321337414112"><ele>63.60000000000001</ele><time>2026-03-24T18:04:49.999Z</time></trkpt><trkpt lat="52.42233435825826" lon="10.802493313890082"><ele>63.4</ele><time>2026-03-24T18:04:51.999Z</time></trkpt><trkpt lat="52.422320801168375" lon="10.802667770076193"><ele>63.2</ele><time>2026-03-24T18:04:53.999Z</time></trkpt><trkpt lat="52.422319236558685" lon="10.802844398304524"><ele>63.0</ele><time>2026-03-24T18:04:55.999Z</time></trkpt><trkpt lat="52.422321446112015" lon="10.803018537143695"><ele>62.8</ele><time>2026-03-24T18:04:57.999Z</time></trkpt><trkpt lat="52.42231645385263" lon="10.803194143168852"><ele>62.599999999999994</ele><time>2026-03-24T18:04:59.999Z</time></trkpt><trkpt lat="52.42231602228085" lon="10.80336393511307"><ele>62.400000000000006</ele><time>2026-03-24T18:05:01.999Z</time></trkpt><trkpt lat="52.422315077680054" lon="10.803525798066957"><ele>62.2</ele><time>2026-03-24T18:05:03.999Z</time></trkpt><trkpt lat="52.422313548915156" lon="10.803665227229288"><ele>62.0</ele><time>2026-03-24T18:05:05.999Z</time></trkpt><trkpt lat="52.4223069135199" lon="10.803779010655944"><ele>62.00000000000001</ele><time>2026-03-24T18:05:07.999Z</time></trkpt><trkpt lat="52.42231696122273" lon="10.803897295407337"><ele>62.0</ele><time>2026-03-24T18:05:10.999Z</time></trkpt><trkpt lat="52.42239008088937" lon="10.803914574130882"><ele>62.0</ele><time>2026-03-24T18:05:13.999Z</time></trkpt><trkpt lat="52.42243284243995" lon="10.803831424631014"><ele>62.0</ele><time>2026-03-24T18:05:15.999Z</time></trkpt><trkpt lat="52.4224740198119" lon="10.803729990536532"><ele>62.00000000000001</ele><time>2026-03-24T18:05:17.999Z</time></trkpt><trkpt lat="52.422554640996545" lon="10.803701858976519"><ele>62.0</ele><time>2026-03-24T18:05:19.999Z</time></trkpt><trkpt lat="52.422643178042016" lon="10.803704386262497"><ele>62.0</ele><time>2026-03-24T18:05:21.999Z</time></trkpt><trkpt lat="52.42273555685998" lon="10.803727224033752"><ele>62.0</ele><time>2026-03-24T18:05:23.999Z</time></trkpt><trkpt lat="52.42283274093031" lon="10.80374860945767"><ele>62.0</ele><time>2026-03-24T18:05:25.999Z</time></trkpt><trkpt lat="52.42293045665211" lon="10.80376009774578"><ele>62.0</ele><time>2026-03-24T18:05:28Z</time></trkpt><trkpt lat="52.4230359622619" lon="10.803750971837049"><ele>62.0</ele><time>2026-03-24T18:05:30Z</time></trkpt><trkpt lat="52.42314159933222" lon="10.803766962799864"><ele>62.0</ele><time>2026-03-24T18:05:32Z</time></trkpt><trkpt lat="52.42325067639525" lon="10.803756848635102"><ele>62.0</ele><time>2026-03-24T18:05:34Z</time></trkpt><trkpt lat="52.42335661158637" lon="10.803755860924738"><ele>62.0</ele><time>2026-03-24T18:05:36Z</time></trkpt><trkpt lat="52.42346312707262" lon="10.803747387331855"><ele>62.0</ele><time>2026-03-24T18:05:38Z</time></trkpt><trkpt lat="52.423566484626654" lon="10.803746581418352"><ele>62.0</ele><time>2026-03-24T18:05:40Z</time></trkpt><trkpt lat="52.42367051279454" lon="10.803739223694194"><ele>62.00000000000001</ele><time>2026-03-24T18:05:42Z</time></trkpt><trkpt lat="52.42377167762602" lon="10.803738438425635"><ele>62.0</ele><time>2026-03-24T18:05:44Z</time></trkpt><trkpt lat="52.42386647025238" lon="10.803740807574583"><ele>62.0</ele><time>2026-03-24T18:05:46Z</time></trkpt><trkpt lat="52.42395620841032" lon="10.803728270383475"><ele>62.0</ele><time>2026-03-24T18:05:48Z</time></trkpt><trkpt lat="52.424039658556566" lon="10.803733811419685"><ele>62.00000000000001</ele><time>2026-03-24T18:05:50Z</time></trkpt><trkpt lat="52.42411843973541" lon="10.803727031201285"><ele>62.0</ele><time>2026-03-24T18:05:52Z</time></trkpt><trkpt lat="52.42418800620584" lon="10.803738864775102"><ele>61.6</ele><time>2026-03-24T18:05:54Z</time></trkpt><trkpt lat="52.42425443908421" lon="10.80382982984392"><ele>61.2</ele><time>2026-03-24T18:05:56Z</time></trkpt><trkpt lat="52.42426915118211" lon="10.803984365627713"><ele>60.8</ele><time>2026-03-24T18:05:58Z</time></trkpt><trkpt lat="52.42426054751801" lon="10.804136000273676"><ele>60.4</ele><time>2026-03-24T18:06:00Z</time></trkpt><trkpt lat="52.424262320225196" lon="10.804293347340558"><ele>60.0</ele><time>2026-03-24T18:06:02Z</time></trkpt><trkpt lat="52.42427157619466" lon="10.804444745477992"><ele>59.8</ele><time>2026-03-24T18:06:04Z</time></trkpt><trkpt lat="52.42427113252553" lon="10.80459525373842"><ele>59.6</ele><time>2026-03-24T18:06:06Z</time></trkpt><trkpt lat="52.42427229480215" lon="10.804757914537527"><ele>59.400000000000006</ele><time>2026-03-24T18:06:08Z</time></trkpt><trkpt lat="52.42427225442332" lon="10.804919980812674"><ele>59.2</ele><time>2026-03-24T18:06:10Z</time></trkpt><trkpt lat="52.4242782843404" lon="10.805083500449797"><ele>59.0</ele><time>2026-03-24T18:06:12Z</time></trkpt><trkpt lat="52.424282713634305" lon="10.805248324532906"><ele>59.400000000000006</ele><time>2026-03-24T18:06:14Z</time></trkpt><trkpt lat="52.42428943323423" lon="10.805414890792191"><ele>59.800000000000004</ele><time>2026-03-24T18:06:16Z</time></trkpt><trkpt lat="52.424291044272216" lon="10.80557700899921"><ele>60.199999999999996</ele><time>2026-03-24T18:06:18Z</time></trkpt><trkpt lat="52.4242924087915" lon="10.805729423449714"><ele>60.599999999999994</ele><time>2026-03-24T18:06:20Z</time></trkpt><trkpt lat="52.42429680968712" lon="10.805872820332048"><ele>61.0</ele><time>2026-03-24T18:06:22Z</time></trkpt><trkpt lat="52.42430322733861" lon="10.806014613892037"><ele>61.0</ele><time>2026-03-24T18:06:24Z</time></trkpt><trkpt lat="52.42430940847575" lon="10.806164465628768"><ele>60.99999999999999</ele><time>2026-03-24T18:06:26Z</time></trkpt><trkpt lat="52.4243165261258" lon="10.806312662628876"><ele>60.99999999999999</ele><time>2026-03-24T18:06:28Z</time></trkpt><trkpt lat="52.42430468376874" lon="10.806459274326903"><ele>61.0</ele><time>2026-03-24T18:06:30Z</time></trkpt><trkpt lat="52.424316454077356" lon="10.806613545026858"><ele>61.0</ele><time>2026-03-24T18:06:32Z</time></trkpt><trkpt lat="52.424326849818556" lon="10.806765922003121"><ele>60.83333333333333</ele><time>2026-03-24T18:06:34Z</time></trkpt><trkpt lat="52.42431484325335" lon="10.80690836850155"><ele>60.666666666666664</ele><time>2026-03-24T18:06:36Z</time></trkpt><trkpt lat="52.424330107887734" lon="10.80703924999312"><ele>60.5</ele><time>2026-03-24T18:06:37.999Z</time></trkpt><trkpt lat="52.42433147573892" lon="10.807154118740785"><ele>60.33333333333333</ele><time>2026-03-24T18:06:39.999Z</time></trkpt><trkpt lat="52.42433369254918" lon="10.807291565091097"><ele>60.166666666666664</ele><time>2026-03-24T18:06:42.999Z</time></trkpt><trkpt lat="52.42434242317238" lon="10.807402273502413"><ele>60.0</ele><time>2026-03-24T18:06:45.999Z</time></trkpt><trkpt lat="52.42439726720581" lon="10.807460741906677"><ele>60.0</ele><time>2026-03-24T18:06:47.999Z</time></trkpt><trkpt lat="52.42446594817231" lon="10.80747967714135"><ele>60.0</ele><time>2026-03-24T18:06:49.999Z</time></trkpt><trkpt lat="52.42453528187223" lon="10.807484537369488"><ele>60.0</ele><time>2026-03-24T18:06:51.999Z</time></trkpt><trkpt lat="52.4246047563751" lon="10.807495830958594"><ele>60.0</ele><time>2026-03-24T18:06:53.999Z</time></trkpt><trkpt lat="52.42466492151033" lon="10.807453375488894"><ele>60.0</ele><time>2026-03-24T18:06:54.999Z</time></trkpt><trkpt lat="52.424728622461224" lon="10.807386898187366"><ele>60.0</ele><time>2026-03-24T18:06:56.999Z</time></trkpt><trkpt lat="52.42480561722617" lon="10.80733637409544"><ele>60.0</ele><time>2026-03-24T18:06:58.999Z</time></trkpt><trkpt lat="52.42488319655402" lon="10.807308418562904"><ele>59.833333333333336</ele><time>2026-03-24T18:07:00.999Z</time></trkpt><trkpt lat="52.424960652010355" lon="10.807273250804501"><ele>59.66666666666667</ele><time>2026-03-24T18:07:02.999Z</time></trkpt><trkpt lat="52.425044654743715" lon="10.807280732985015"><ele>59.5</ele><time>2026-03-24T18:07:04.999Z</time></trkpt><trkpt lat="52.425132520493456" lon="10.807273771990674"><ele>59.333333333333336</ele><time>2026-03-24T18:07:06.999Z</time></trkpt><trkpt lat="52.42522496957153" lon="10.807268939873962"><ele>59.16666666666667</ele><time>2026-03-24T18:07:08.999Z</time></trkpt><trkpt lat="52.425321056848" lon="10.80725800054161"><ele>59.0</ele><time>2026-03-24T18:07:10.999Z</time></trkpt><trkpt lat="52.425409759542006" lon="10.807249361419293"><ele>58.800000000000004</ele><time>2026-03-24T18:07:12.999Z</time></trkpt><trkpt lat="52.42549182854915" lon="10.807248629150171"><ele>58.60000000000001</ele><time>2026-03-24T18:07:14.999Z</time></trkpt><trkpt lat="52.425569301004806" lon="10.80725114473758"><ele>58.4</ele><time>2026-03-24T18:07:16.999Z</time></trkpt><trkpt lat="52.4256424357003" lon="10.807246079604564"><ele>58.2</ele><time>2026-03-24T18:07:18.999Z</time></trkpt><trkpt lat="52.4257073116574" lon="10.807239266760066"><ele>58.0</ele><time>2026-03-24T18:07:20.999Z</time></trkpt><trkpt lat="52.42574133979164" lon="10.807550745326482"><ele>57.8</ele><time>2026-03-24T18:07:26.999Z</time></trkpt><trkpt lat="52.42573955364322" lon="10.807691800071224"><ele>57.599999999999994</ele><time>2026-03-24T18:07:28.999Z</time></trkpt><trkpt lat="52.42574398598122" lon="10.807842708544916"><ele>57.400000000000006</ele><time>2026-03-24T18:07:30.999Z</time></trkpt><trkpt lat="52.42574590348274" lon="10.808003495490018"><ele>57.2</ele><time>2026-03-24T18:07:32.999Z</time></trkpt><trkpt lat="52.425754982460134" lon="10.808168969845479"><ele>57.0</ele><time>2026-03-24T18:07:35Z</time></trkpt><trkpt lat="52.42576246186699" lon="10.808336980775843"><ele>57.0</ele><time>2026-03-24T18:07:37Z</time></trkpt><trkpt lat="52.42576303097404" lon="10.808493007462085"><ele>57.0</ele><time>2026-03-24T18:07:39Z</time></trkpt><trkpt lat="52.42576169623614" lon="10.808628805640522"><ele>57.0</ele><time>2026-03-24T18:07:41Z</time></trkpt><trkpt lat="52.42571760101435" lon="10.808735194538418"><ele>57.0</ele><time>2026-03-24T18:07:43Z</time></trkpt><trkpt lat="52.42563881298059" lon="10.808764013473425"><ele>57.0</ele><time>2026-03-24T18:07:45Z</time></trkpt><trkpt lat="52.42556027757167" lon="10.808805274933661"><ele>57.0</ele><time>2026-03-24T18:07:47Z</time></trkpt><trkpt lat="52.42552143398973" lon="10.808936341478313"><ele>57.0</ele><time>2026-03-24T18:07:49Z</time></trkpt><trkpt lat="52.425514865106734" lon="10.809093923436174"><ele>57.0</ele><time>2026-03-24T18:07:51Z</time></trkpt><trkpt lat="52.425521966486514" lon="10.809249729295992"><ele>57.0</ele><time>2026-03-24T18:07:53Z</time></trkpt><trkpt lat="52.4255377129559" lon="10.809402844099571"><ele>57.0</ele><time>2026-03-24T18:07:55Z</time></trkpt><trkpt lat="52.425543417982475" lon="10.809554681876625"><ele>57.0</ele><time>2026-03-24T18:07:57Z</time></trkpt><trkpt lat="52.42557515208264" lon="10.809697152768448"><ele>57.166666666666664</ele><time>2026-03-24T18:07:59Z</time></trkpt><trkpt lat="52.42556758868702" lon="10.809851983737216"><ele>57.33333333333333</ele><time>2026-03-24T18:08:01Z</time></trkpt><trkpt lat="52.42558107290088" lon="10.810008224390938"><ele>57.5</ele><time>2026-03-24T18:08:03Z</time></trkpt><trkpt lat="52.42559071568813" lon="10.810154141566645"><ele>57.666666666666664</ele><time>2026-03-24T18:08:05Z</time></trkpt><trkpt lat="52.425603418856944" lon="10.810290721958017"><ele>57.83333333333333</ele><time>2026-03-24T18:08:07Z</time></trkpt><trkpt lat="52.42561297485184" lon="10.81042745741168"><ele>58.0</ele><time>2026-03-24T18:08:09Z</time></trkpt><trkpt lat="52.42562660246696" lon="10.81057460189372"><ele>57.99999999999999</ele><time>2026-03-24T18:08:11Z</time></trkpt><trkpt lat="52.42563501649971" lon="10.810723435846926"><ele>58.0</ele><time>2026-03-24T18:08:13Z</time></trkpt><trkpt lat="52.425646328682774" lon="10.810876009094578"><ele>58.0</ele><time>2026-03-24T18:08:15Z</time></trkpt><trkpt lat="52.42565602703489" lon="10.811024687374434"><ele>58.0</ele><time>2026-03-24T18:08:17Z</time></trkpt><trkpt lat="52.42566695130328" lon="10.81115812337096"><ele>57.99999999999999</ele><time>2026-03-24T18:08:19Z</time></trkpt><trkpt lat="52.425661420755404" lon="10.811293276197647"><ele>58.0</ele><time>2026-03-24T18:08:22Z</time></trkpt><trkpt lat="52.42560165451806" lon="10.811360935538369"><ele>58.0</ele><time>2026-03-24T18:08:24Z</time></trkpt><trkpt lat="52.42551794867248" lon="10.811377100129393"><ele>58.0</ele><time>2026-03-24T18:08:26Z</time></trkpt><trkpt lat="52.42542449114064" lon="10.811399495239288"><ele>58.0</ele><time>2026-03-24T18:08:28Z</time></trkpt><trkpt lat="52.42533214697817" lon="10.811408265709046"><ele>58.0</ele><time>2026-03-24T18:08:30Z</time></trkpt><trkpt lat="52.425238865200754" lon="10.81142606144248"><ele>58.0</ele><time>2026-03-24T18:08:32Z</time></trkpt><trkpt lat="52.425148171255785" lon="10.81144649858298"><ele>58.166666666666664</ele><time>2026-03-24T18:08:34Z</time></trkpt><trkpt lat="52.42506269488864" lon="10.811468007421313"><ele>58.33333333333333</ele><time>2026-03-24T18:08:36Z</time></trkpt><trkpt lat="52.42497978909444" lon="10.811491659742327"><ele>58.5</ele><time>2026-03-24T18:08:38Z</time></trkpt><trkpt lat="52.424898840280825" lon="10.811523225488036"><ele>58.66666666666667</ele><time>2026-03-24T18:08:39.999Z</time></trkpt><trkpt lat="52.42481808663334" lon="10.811537975638268"><ele>58.833333333333336</ele><time>2026-03-24T18:08:41.999Z</time></trkpt><trkpt lat="52.4247373627014" lon="10.811537192947817"><ele>59.0</ele><time>2026-03-24T18:08:43.999Z</time></trkpt><trkpt lat="52.424654190835064" lon="10.811550891961172"><ele>59.00000000000001</ele><time>2026-03-24T18:08:45.999Z</time></trkpt><trkpt lat="52.424572082451085" lon="10.811547569967038"><ele>59.0</ele><time>2026-03-24T18:08:47.999Z</time></trkpt><trkpt lat="52.42449032502317" lon="10.811539447082767"><ele>59.0</ele><time>2026-03-24T18:08:49.999Z</time></trkpt><trkpt lat="52.424415484935615" lon="10.811525645606691"><ele>59.0</ele><time>2026-03-24T18:08:51.999Z</time></trkpt><trkpt lat="52.424371225813104" lon="10.811430054636544"><ele>59.00000000000001</ele><time>2026-03-24T18:08:53.999Z</time></trkpt><trkpt lat="52.424370930256465" lon="10.811309342308054"><ele>59.0</ele><time>2026-03-24T18:08:55.999Z</time></trkpt><trkpt lat="52.4243777882621" lon="10.811185891924122"><ele>59.00000000000001</ele><time>2026-03-24T18:08:57.999Z</time></trkpt><trkpt lat="52.424376930745574" lon="10.811057555510207"><ele>59.0</ele><time>2026-03-24T18:08:59.999Z</time></trkpt><trkpt lat="52.42437907059878" lon="10.810927301556774"><ele>59.0</ele><time>2026-03-24T18:09:01.999Z</time></trkpt><trkpt lat="52.42438074253972" lon="10.810798233502522"><ele>59.0</ele><time>2026-03-24T18:09:03.999Z</time></trkpt><trkpt lat="52.42438028578005" lon="10.810671975156506"><ele>59.00000000000001</ele><time>2026-03-24T18:09:05.999Z</time></trkpt><trkpt lat="52.42436913678359" lon="10.810552160614622"><ele>59.0</ele><time>2026-03-24T18:09:07.999Z</time></trkpt><trkpt lat="52.42437256680688" lon="10.8104299760143"><ele>59.00000000000001</ele><time>2026-03-24T18:09:09.999Z</time></trkpt><trkpt lat="52.42437530957946" lon="10.810301546979115"><ele>59.0</ele><time>2026-03-24T18:09:11.999Z</time></trkpt><trkpt lat="52.42436635340972" lon="10.810193762800324"><ele>59.0</ele><time>2026-03-24T18:09:13.999Z</time></trkpt><trkpt lat="52.42436925233122" lon="10.810057625830897"><ele>59.0</ele><time>2026-03-24T18:09:17.999Z</time></trkpt><trkpt lat="52.42436989362874" lon="10.809937755513669"><ele>59.00000000000001</ele><time>2026-03-24T18:09:20.999Z</time></trkpt><trkpt lat="52.42437393885954" lon="10.80979543900837"><ele>59.0</ele><time>2026-03-24T18:09:23.999Z</time></trkpt><trkpt lat="52.424376803379644" lon="10.80968896825701"><ele>59.00000000000001</ele><time>2026-03-24T18:09:25.999Z</time></trkpt><trkpt lat="52.4243798373491" lon="10.809569029961903"><ele>59.0</ele><time>2026-03-24T18:09:27.999Z</time></trkpt><trkpt lat="52.42437666669074" lon="10.809439248775584"><ele>59.0</ele><time>2026-03-24T18:09:29.999Z</time></trkpt><trkpt lat="52.42437595569082" lon="10.809304911776517"><ele>59.0</ele><time>2026-03-24T18:09:31.999Z</time></trkpt><trkpt lat="52.42437194637579" lon="10.80916667219425"><ele>59.00000000000001</ele><time>2026-03-24T18:09:33.999Z</time></trkpt><trkpt lat="52.42436802288783" lon="10.809024132353793"><ele>59.0</ele><time>2026-03-24T18:09:35.999Z</time></trkpt><trkpt lat="52.42436226221597" lon="10.808885835865564"><ele>59.00000000000001</ele><time>2026-03-24T18:09:37.999Z</time></trkpt><trkpt lat="52.424361271613684" lon="10.808773624880347"><ele>59.0</ele><time>2026-03-24T18:09:40Z</time></trkpt><trkpt lat="52.42435380325425" lon="10.808626683318092"><ele>59.0</ele><time>2026-03-24T18:09:43Z</time></trkpt><trkpt lat="52.42435745095668" lon="10.80851403247096"><ele>59.0</ele><time>2026-03-24T18:09:45Z</time></trkpt><trkpt lat="52.42435284897964" lon="10.808396847802276"><ele>59.00000000000001</ele><time>2026-03-24T18:09:47Z</time></trkpt><trkpt lat="52.42434541896795" lon="10.808269371200506"><ele>59.0</ele><time>2026-03-24T18:09:49Z</time></trkpt><trkpt lat="52.424345017040935" lon="10.808141268825821"><ele>59.14285714285714</ele><time>2026-03-24T18:09:51Z</time></trkpt><trkpt lat="52.4243449220211" lon="10.808018814766223"><ele>59.28571428571429</ele><time>2026-03-24T18:09:53Z</time></trkpt><trkpt lat="52.42434834133512" lon="10.807908537658586"><ele>59.42857142857143</ele><time>2026-03-24T18:09:55Z</time></trkpt><trkpt lat="52.42434759332844" lon="10.80779470015979"><ele>59.57142857142857</ele><time>2026-03-24T18:09:57Z</time></trkpt><trkpt lat="52.42434376368891" lon="10.80765925780716"><ele>59.71428571428571</ele><time>2026-03-24T18:10:00Z</time></trkpt><trkpt lat="52.42434344738502" lon="10.807542969744306"><ele>59.85714285714286</ele><time>2026-03-24T18:10:03Z</time></trkpt><trkpt lat="52.424351998677956" lon="10.807439838360368"><ele>60.0</ele><time>2026-03-24T18:10:07Z</time></trkpt><trkpt lat="52.42435034191383" lon="10.807326000723517"><ele>60.0</ele><time>2026-03-24T18:10:10Z</time></trkpt><trkpt lat="52.424353925107354" lon="10.807171958194749"><ele>60.0</ele><time>2026-03-24T18:10:13Z</time></trkpt><trkpt lat="52.42434942073735" lon="10.807064833146741"><ele>60.0</ele><time>2026-03-24T18:10:15Z</time></trkpt><trkpt lat="52.42434376314542" lon="10.806950611428407"><ele>60.0</ele><time>2026-03-24T18:10:17Z</time></trkpt><trkpt lat="52.42434275765277" lon="10.806834190320384"><ele>60.0</ele><time>2026-03-24T18:10:19Z</time></trkpt><trkpt lat="52.424339954885205" lon="10.806708327655588"><ele>60.0</ele><time>2026-03-24T18:10:21Z</time></trkpt><trkpt lat="52.42433620952908" lon="10.806577157976637"><ele>60.166666666666664</ele><time>2026-03-24T18:10:23Z</time></trkpt><trkpt lat="52.42433426686348" lon="10.806446809977777"><ele>60.33333333333333</ele><time>2026-03-24T18:10:25Z</time></trkpt><trkpt lat="52.4243316048552" lon="10.806318382514904"><ele>60.5</ele><time>2026-03-24T18:10:27Z</time></trkpt><trkpt lat="52.42432763649121" lon="10.806187363097163"><ele>60.666666666666664</ele><time>2026-03-24T18:10:29Z</time></trkpt><trkpt lat="52.424322906465115" lon="10.806051255867782"><ele>60.83333333333333</ele><time>2026-03-24T18:10:31Z</time></trkpt><trkpt lat="52.424322514104354" lon="10.805923556591635"><ele>61.0</ele><time>2026-03-24T18:10:33Z</time></trkpt><trkpt lat="52.42431706343906" lon="10.805811387314206"><ele>60.99999999999999</ele><time>2026-03-24T18:10:35Z</time></trkpt><trkpt lat="52.42431327872181" lon="10.805669520715075"><ele>61.0</ele><time>2026-03-24T18:10:38Z</time></trkpt><trkpt lat="52.42431405458589" lon="10.805551355721835"><ele>61.0</ele><time>2026-03-24T18:10:41Z</time></trkpt><trkpt lat="52.42431455690165" lon="10.805408631527314"><ele>61.0</ele><time>2026-03-24T18:10:44Z</time></trkpt><trkpt lat="52.42430596625116" lon="10.805303557189456"><ele>60.99999999999999</ele><time>2026-03-24T18:10:46Z</time></trkpt><trkpt lat="52.4243072767173" lon="10.805192288737322"><ele>61.0</ele><time>2026-03-24T18:10:47.999Z</time></trkpt><trkpt lat="52.42430327903112" lon="10.805073924758767"><ele>60.83333333333333</ele><time>2026-03-24T18:10:49.999Z</time></trkpt><trkpt lat="52.42430528625764" lon="10.80495392151044"><ele>60.666666666666664</ele><time>2026-03-24T18:10:51.999Z</time></trkpt><trkpt lat="52.42430264678134" lon="10.804821475711718"><ele>60.5</ele><time>2026-03-24T18:10:53.999Z</time></trkpt><trkpt lat="52.424298463691606" lon="10.804682834653539"><ele>60.33333333333333</ele><time>2026-03-24T18:10:55.999Z</time></trkpt><trkpt lat="52.424293084516314" lon="10.804543535300672"><ele>60.166666666666664</ele><time>2026-03-24T18:10:57.999Z</time></trkpt><trkpt lat="52.42429180394465" lon="10.804405333038696"><ele>60.0</ele><time>2026-03-24T18:10:59.999Z</time></trkpt><trkpt lat="52.424286874967045" lon="10.804262563507638"><ele>60.0</ele><time>2026-03-24T18:11:01.999Z</time></trkpt><trkpt lat="52.42428134910249" lon="10.804117121205076"><ele>60.0</ele><time>2026-03-24T18:11:03.999Z</time></trkpt><trkpt lat="52.42428425257122" lon="10.803967903920787"><ele>60.0</ele><time>2026-03-24T18:11:05.999Z</time></trkpt><trkpt lat="52.424279839896" lon="10.80381849468818"><ele>60.0</ele><time>2026-03-24T18:11:07.999Z</time></trkpt><trkpt lat="52.424276619760384" lon="10.803672904793155"><ele>60.0</ele><time>2026-03-24T18:11:09.999Z</time></trkpt><trkpt lat="52.42427640432696" lon="10.803531692967304"><ele>60.0</ele><time>2026-03-24T18:11:11.999Z</time></trkpt><trkpt lat="52.424273370088876" lon="10.803400220995849"><ele>60.0</ele><time>2026-03-24T18:11:13.999Z</time></trkpt><trkpt lat="52.42426966763335" lon="10.803271905678612"><ele>60.0</ele><time>2026-03-24T18:11:15.999Z</time></trkpt><trkpt lat="52.4242644303514" lon="10.803140255944234"><ele>60.0</ele><time>2026-03-24T18:11:17.999Z</time></trkpt><trkpt lat="52.42426291717419" lon="10.803004734222784"><ele>60.0</ele><time>2026-03-24T18:11:19.999Z</time></trkpt><trkpt lat="52.424257357629145" lon="10.802875407050156"><ele>60.0</ele><time>2026-03-24T18:11:21.999Z</time></trkpt><trkpt lat="52.424243970792794" lon="10.8027486976159"><ele>60.0</ele><time>2026-03-24T18:11:23.999Z</time></trkpt><trkpt lat="52.4242231922282" lon="10.80262726384243"><ele>60.0</ele><time>2026-03-24T18:11:25.999Z</time></trkpt><trkpt lat="52.4241905800228" lon="10.802523963170717"><ele>60.0</ele><time>2026-03-24T18:11:27.999Z</time></trkpt><trkpt lat="52.42415745709022" lon="10.802433851280126"><ele>60.0</ele><time>2026-03-24T18:11:29.999Z</time></trkpt><trkpt lat="52.42419458723465" lon="10.802302249475478"><ele>60.0</ele><time>2026-03-24T18:11:32.999Z</time></trkpt><trkpt lat="52.42422088368609" lon="10.802204034990869"><ele>60.0</ele><time>2026-03-24T18:11:34.999Z</time></trkpt><trkpt lat="52.424227738208344" lon="10.802096180882476"><ele>60.0</ele><time>2026-03-24T18:11:36.999Z</time></trkpt><trkpt lat="52.42423568967082" lon="10.80197733564644"><ele>60.0</ele><time>2026-03-24T18:11:38.999Z</time></trkpt><trkpt lat="52.42423640433159" lon="10.80185602254992"><ele>60.333333333333336</ele><time>2026-03-24T18:11:40.999Z</time></trkpt><trkpt lat="52.42424429058231" lon="10.801737962886344"><ele>60.66666666666667</ele><time>2026-03-24T18:11:42.999Z</time></trkpt><trkpt lat="52.42423501126536" lon="10.801588297704473"><ele>61.0</ele><time>2026-03-24T18:11:46Z</time></trkpt><trkpt lat="52.424238836738304" lon="10.801452893910716"><ele>61.333333333333336</ele><time>2026-03-24T18:11:49Z</time></trkpt><trkpt lat="52.42424610396026" lon="10.801337356689302"><ele>61.66666666666667</ele><time>2026-03-24T18:11:52Z</time></trkpt><trkpt lat="52.4242462924623" lon="10.801228539059926"><ele>62.0</ele><time>2026-03-24T18:11:55Z</time></trkpt><trkpt lat="52.42427286552244" lon="10.801104307934224"><ele>62.333333333333336</ele><time>2026-03-24T18:11:58Z</time></trkpt><trkpt lat="52.424286907266826" lon="10.800972707302915"><ele>62.66666666666667</ele><time>2026-03-24T18:12:01Z</time></trkpt><trkpt lat="52.424309618904665" lon="10.800830734001629"><ele>63.0</ele><time>2026-03-24T18:12:04Z</time></trkpt><trkpt lat="52.42432946376317" lon="10.80068348675833"><ele>63.33333333333333</ele><time>2026-03-24T18:12:07Z</time></trkpt><trkpt lat="52.4243425113745" lon="10.800578304865844"><ele>63.666666666666664</ele><time>2026-03-24T18:12:09Z</time></trkpt><trkpt lat="52.424352013795406" lon="10.800463892909407"><ele>64.0</ele><time>2026-03-24T18:12:11Z</time></trkpt><trkpt lat="52.42433058543067" lon="10.800346067826116"><ele>64.0</ele><time>2026-03-24T18:12:13Z</time></trkpt><trkpt lat="52.42428863176035" lon="10.800237243208056"><ele>63.99999999999999</ele><time>2026-03-24T18:12:15Z</time></trkpt><trkpt lat="52.424247285044636" lon="10.800135422038245"><ele>64.0</ele><time>2026-03-24T18:12:17Z</time></trkpt><trkpt lat="52.424186974311986" lon="10.800070572116628"><ele>64.0</ele><time>2026-03-24T18:12:19Z</time></trkpt><trkpt lat="52.42411567766778" lon="10.800043538232226"><ele>63.99999999999999</ele><time>2026-03-24T18:12:21Z</time></trkpt><trkpt lat="52.42404439818193" lon="10.800020647138714"><ele>64.0</ele><time>2026-03-24T18:12:23Z</time></trkpt><trkpt lat="52.4239731642835" lon="10.800014853260349"><ele>64.0</ele><time>2026-03-24T18:12:25Z</time></trkpt><trkpt lat="52.42390429805199" lon="10.800021764669994"><ele>63.857142857142854</ele><time>2026-03-24T18:12:27Z</time></trkpt><trkpt lat="52.423835001708426" lon="10.800029901604848"><ele>63.71428571428571</ele><time>2026-03-24T18:12:29Z</time></trkpt><trkpt lat="52.42376547661677" lon="10.800037671994456"><ele>63.57142857142857</ele><time>2026-03-24T18:12:31Z</time></trkpt><trkpt lat="52.42368028865692" lon="10.800050636680872"><ele>63.42857142857143</ele><time>2026-03-24T18:12:34Z</time></trkpt><trkpt lat="52.42359428341114" lon="10.800069244628762"><ele>63.285714285714285</ele><time>2026-03-24T18:12:37Z</time></trkpt><trkpt lat="52.4235306001369" lon="10.800093772062722"><ele>63.14285714285714</ele><time>2026-03-24T18:12:39Z</time></trkpt><trkpt lat="52.42347004211169" lon="10.800127507007252"><ele>63.0</ele><time>2026-03-24T18:12:41Z</time></trkpt><trkpt lat="52.42340831756629" lon="10.800150864626993"><ele>63.166666666666664</ele><time>2026-03-24T18:12:43Z</time></trkpt><trkpt lat="52.423345604419865" lon="10.800168252215062"><ele>63.33333333333333</ele><time>2026-03-24T18:12:45Z</time></trkpt><trkpt lat="52.42326149483274" lon="10.800203561655634"><ele>63.5</ele><time>2026-03-24T18:12:48Z</time></trkpt><trkpt lat="52.42318185850991" lon="10.800210234873697"><ele>63.666666666666664</ele><time>2026-03-24T18:12:51Z</time></trkpt><trkpt lat="52.42309529451178" lon="10.800194163725433"><ele>63.83333333333333</ele><time>2026-03-24T18:12:53.999Z</time></trkpt><trkpt lat="52.423014184510926" lon="10.80018560116244"><ele>64.0</ele><time>2026-03-24T18:12:56.999Z</time></trkpt><trkpt lat="52.422932540568254" lon="10.800174804439681"><ele>64.16666666666666</ele><time>2026-03-24T18:12:59.999Z</time></trkpt><trkpt lat="52.422849184939196" lon="10.800170099427369"><ele>64.33333333333333</ele><time>2026-03-24T18:13:02.999Z</time></trkpt><trkpt lat="52.4227665929468" lon="10.800165908103354"><ele>64.5</ele><time>2026-03-24T18:13:05.999Z</time></trkpt><trkpt lat="52.42270402455971" lon="10.800182879602842"><ele>64.66666666666667</ele><time>2026-03-24T18:13:07.999Z</time></trkpt><trkpt lat="52.422611925777225" lon="10.800140719615433"><ele>64.83333333333334</ele><time>2026-03-24T18:13:10.999Z</time></trkpt><trkpt lat="52.422591557125415" lon="10.800027329377244"><ele>65.0</ele><time>2026-03-24T18:13:12.999Z</time></trkpt><trkpt lat="52.422604232274416" lon="10.799909746343241"><ele>65.00000000000001</ele><time>2026-03-24T18:13:14.999Z</time></trkpt><trkpt lat="52.422610355840234" lon="10.799794723696824"><ele>65.0</ele><time>2026-03-24T18:13:16.999Z</time></trkpt><trkpt lat="52.42262390777968" lon="10.799660990192402"><ele>65.0</ele><time>2026-03-24T18:13:19.999Z</time></trkpt><trkpt lat="52.42263227002099" lon="10.799525089247624"><ele>65.0</ele><time>2026-03-24T18:13:22.999Z</time></trkpt><trkpt lat="52.42264972079757" lon="10.7994186660741"><ele>65.0</ele><time>2026-03-24T18:13:25.999Z</time></trkpt><trkpt lat="52.4226813632705" lon="10.799297925677898"><ele>65.00000000000001</ele><time>2026-03-24T18:13:29.999Z</time></trkpt><trkpt lat="52.422661642278925" lon="10.799199471649912"><ele>65.0</ele><time>2026-03-24T18:13:57Z</time></trkpt><trkpt lat="52.4226263929366" lon="10.7990598996613"><ele>65.14285714285715</ele><time>2026-03-24T18:14:00Z</time></trkpt><trkpt lat="52.42259669010134" lon="10.798954691795592"><ele>65.28571428571429</ele><time>2026-03-24T18:14:02Z</time></trkpt><trkpt lat="52.42253000704949" lon="10.798903722942656"><ele>65.42857142857143</ele><time>2026-03-24T18:14:04Z</time></trkpt><trkpt lat="52.42246075475008" lon="10.798956235693339"><ele>65.57142857142858</ele><time>2026-03-24T18:14:06Z</time></trkpt><trkpt lat="52.42240111020809" lon="10.79900422618657"><ele>65.71428571428572</ele><time>2026-03-24T18:14:08Z</time></trkpt><trkpt lat="52.42234696874357" lon="10.799056962303917"><ele>65.85714285714286</ele><time>2026-03-24T18:14:10Z</time></trkpt><trkpt lat="52.42227220237471" lon="10.79914595561629"><ele>66.0</ele><time>2026-03-24T18:14:13Z</time></trkpt><trkpt lat="52.4221982701632" lon="10.799225155466475"><ele>66.66666666666667</ele><time>2026-03-24T18:14:16Z</time></trkpt><trkpt lat="52.42211433836157" lon="10.799275017918985"><ele>67.33333333333333</ele><time>2026-03-24T18:14:19Z</time></trkpt><trkpt lat="52.42203034765515" lon="10.799338434088595"><ele>68.0</ele><time>2026-03-24T18:14:22Z</time></trkpt><trkpt lat="52.421971722928674" lon="10.799376995846245"><ele>68.66666666666666</ele><time>2026-03-24T18:14:24Z</time></trkpt><trkpt lat="52.42188227037915" lon="10.799431349960809"><ele>69.33333333333333</ele><time>2026-03-24T18:14:27Z</time></trkpt><trkpt lat="52.42182107542278" lon="10.79947293804907"><ele>70.0</ele><time>2026-03-24T18:14:29Z</time></trkpt><trkpt lat="52.421757386726526" lon="10.799505984736864"><ele>70.0</ele><time>2026-03-24T18:14:31Z</time></trkpt><trkpt lat="52.42169530181356" lon="10.799540519959322"><ele>70.0</ele><time>2026-03-24T18:14:33Z</time></trkpt><trkpt lat="52.42163596775275" lon="10.799579214671954"><ele>70.0</ele><time>2026-03-24T18:14:35Z</time></trkpt><trkpt lat="52.42157473530633" lon="10.799610064977651"><ele>70.0</ele><time>2026-03-24T18:14:37Z</time></trkpt><trkpt lat="52.42151347924522" lon="10.799643506980962"><ele>70.0</ele><time>2026-03-24T18:14:39Z</time></trkpt><trkpt lat="52.421452758018226" lon="10.79967751982476"><ele>70.0</ele><time>2026-03-24T18:14:41Z</time></trkpt><trkpt lat="52.42138971034703" lon="10.799711731997135"><ele>70.0</ele><time>2026-03-24T18:14:43Z</time></trkpt><trkpt lat="52.421326673925684" lon="10.799743948355337"><ele>70.14285714285714</ele><time>2026-03-24T18:14:45Z</time></trkpt><trkpt lat="52.42126441443316" lon="10.799776368301995"><ele>70.28571428571428</ele><time>2026-03-24T18:14:47Z</time></trkpt><trkpt lat="52.42120135839615" lon="10.799793581226266"><ele>70.42857142857143</ele><time>2026-03-24T18:14:49Z</time></trkpt><trkpt lat="52.42113545455965" lon="10.79981081046457"><ele>70.57142857142857</ele><time>2026-03-24T18:14:51Z</time></trkpt><trkpt lat="52.421069361724264" lon="10.799826187511153"><ele>70.71428571428571</ele><time>2026-03-24T18:14:53Z</time></trkpt><trkpt lat="52.421001717009105" lon="10.79983122484735"><ele>70.85714285714286</ele><time>2026-03-24T18:14:55Z</time></trkpt><trkpt lat="52.4209339098376" lon="10.799838658981729"><ele>71.0</ele><time>2026-03-24T18:14:57Z</time></trkpt><trkpt lat="52.42086474217806" lon="10.799841378427434"><ele>71.0</ele><time>2026-03-24T18:14:59Z</time></trkpt><trkpt lat="52.420794863622945" lon="10.799841023057336"><ele>71.0</ele><time>2026-03-24T18:15:01Z</time></trkpt><trkpt lat="52.420726917813646" lon="10.79983331418198"><ele>71.0</ele><time>2026-03-24T18:15:02.999Z</time></trkpt><trkpt lat="52.420660939395475" lon="10.799806086952001"><ele>71.0</ele><time>2026-03-24T18:15:04.999Z</time></trkpt><trkpt lat="52.42060273029105" lon="10.799755946470132"><ele>71.0</ele><time>2026-03-24T18:15:06.999Z</time></trkpt><trkpt lat="52.42053216722283" lon="10.79967256031041"><ele>71.0</ele><time>2026-03-24T18:15:09.999Z</time></trkpt><trkpt lat="52.42046101619876" lon="10.799610819564057"><ele>71.0</ele><time>2026-03-24T18:15:12.999Z</time></trkpt><trkpt lat="52.42039379456988" lon="10.799578463009246"><ele>70.28571428571428</ele><time>2026-03-24T18:15:15.999Z</time></trkpt><trkpt lat="52.420318246710124" lon="10.799571175855043"><ele>69.57142857142857</ele><time>2026-03-24T18:15:18.999Z</time></trkpt><trkpt lat="52.42024885999508" lon="10.799579819549619"><ele>68.85714285714286</ele><time>2026-03-24T18:15:21.999Z</time></trkpt><trkpt lat="52.42017678794838" lon="10.799597156791608"><ele>68.14285714285714</ele><time>2026-03-24T18:15:24.999Z</time></trkpt><trkpt lat="52.420103981717176" lon="10.799615253531273"><ele>67.42857142857143</ele><time>2026-03-24T18:15:27.999Z</time></trkpt><trkpt lat="52.420035712103214" lon="10.799617379359567"><ele>66.71428571428571</ele><time>2026-03-24T18:15:30.999Z</time></trkpt><trkpt lat="52.41996135889229" lon="10.799605173306313"><ele>66.0</ele><time>2026-03-24T18:15:34.999Z</time></trkpt><trkpt lat="52.41988874976048" lon="10.799583267294429"><ele>66.0</ele><time>2026-03-24T18:15:39.999Z</time></trkpt><trkpt lat="52.41981449419614" lon="10.799541297255168"><ele>66.0</ele><time>2026-03-24T18:15:44.999Z</time></trkpt><trkpt lat="52.419751505143104" lon="10.799508243510571"><ele>66.0</ele><time>2026-03-24T18:15:48.999Z</time></trkpt><trkpt lat="52.419686516324134" lon="10.799479459652904"><ele>66.0</ele><time>2026-03-24T18:15:51.999Z</time></trkpt><trkpt lat="52.41961946503937" lon="10.799452954933741"><ele>66.0</ele><time>2026-03-24T18:15:53.999Z</time></trkpt><trkpt lat="52.41954713716692" lon="10.799376063498363"><ele>66.0</ele><time>2026-03-24T18:15:55.999Z</time></trkpt><trkpt lat="52.41947677280129" lon="10.799253945584343"><ele>66.25</ele><time>2026-03-24T18:15:58Z</time></trkpt><trkpt lat="52.41940130591028" lon="10.799122046070291"><ele>66.5</ele><time>2026-03-24T18:16:00Z</time></trkpt><trkpt lat="52.41932282926302" lon="10.798986383194723"><ele>66.75</ele><time>2026-03-24T18:16:02Z</time></trkpt><trkpt lat="52.41924653463331" lon="10.798848961331846"><ele>67.0</ele><time>2026-03-24T18:16:04Z</time></trkpt><trkpt lat="52.41916830459888" lon="10.798705175552582"><ele>67.0</ele><time>2026-03-24T18:16:06Z</time></trkpt><trkpt lat="52.419087552702976" lon="10.798567429566006"><ele>67.0</ele><time>2026-03-24T18:16:08Z</time></trkpt><trkpt lat="52.41900418392681" lon="10.798430277385595"><ele>67.0</ele><time>2026-03-24T18:16:10Z</time></trkpt><trkpt lat="52.41892808445004" lon="10.798295034818246"><ele>67.0</ele><time>2026-03-24T18:16:12Z</time></trkpt><trkpt lat="52.41885984920811" lon="10.79815131629691"><ele>66.66666666666666</ele><time>2026-03-24T18:16:14Z</time></trkpt><trkpt lat="52.41879016690768" lon="10.798001159627889"><ele>66.33333333333333</ele><time>2026-03-24T18:16:16Z</time></trkpt><trkpt lat="52.41870704243771" lon="10.797842025590421"><ele>66.0</ele><time>2026-03-24T18:16:18Z</time></trkpt><trkpt lat="52.41866504168972" lon="10.797764363181201"><ele>65.66666666666667</ele><time>2026-03-24T18:16:19Z</time></trkpt><trkpt lat="52.41861940083891" lon="10.797683828832328"><ele>65.33333333333334</ele><time>2026-03-24T18:16:20Z</time></trkpt><trkpt lat="52.41857099867868" lon="10.797604394071147"><ele>65.0</ele><time>2026-03-24T18:16:21Z</time></trkpt><trkpt lat="52.418524939105104" lon="10.797527205726091"><ele>64.8</ele><time>2026-03-24T18:16:22Z</time></trkpt><trkpt lat="52.418477428761335" lon="10.797456638148635"><ele>64.6</ele><time>2026-03-24T18:16:23Z</time></trkpt><trkpt lat="52.418388956961685" lon="10.797324063849649"><ele>64.4</ele><time>2026-03-24T18:16:25Z</time></trkpt><trkpt lat="52.41830526393124" lon="10.79720714438981"><ele>64.2</ele><time>2026-03-24T18:16:27Z</time></trkpt><trkpt lat="52.41822618532266" lon="10.79709565168004"><ele>64.0</ele><time>2026-03-24T18:16:29Z</time></trkpt><trkpt lat="52.41814380742542" lon="10.796984273112614"><ele>64.0</ele><time>2026-03-24T18:16:31Z</time></trkpt><trkpt lat="52.418066865701526" lon="10.796877708764244"><ele>64.0</ele><time>2026-03-24T18:16:33Z</time></trkpt><trkpt lat="52.41799049383382" lon="10.796776783745708"><ele>64.0</ele><time>2026-03-24T18:16:35Z</time></trkpt><trkpt lat="52.41792030634747" lon="10.79667773008003"><ele>64.0</ele><time>2026-03-24T18:16:37Z</time></trkpt><trkpt lat="52.417850739344836" lon="10.796579231060312"><ele>64.0</ele><time>2026-03-24T18:16:39Z</time></trkpt><trkpt lat="52.41778179000787" lon="10.796489067754148"><ele>64.33333333333333</ele><time>2026-03-24T18:16:41Z</time></trkpt><trkpt lat="52.417717490438015" lon="10.796402118515815"><ele>64.66666666666666</ele><time>2026-03-24T18:16:43Z</time></trkpt><trkpt lat="52.41765940588791" lon="10.796335601615125"><ele>65.0</ele><time>2026-03-24T18:16:45Z</time></trkpt><trkpt lat="52.4175840386795" lon="10.796250718454193"><ele>65.33333333333333</ele><time>2026-03-24T18:16:48Z</time></trkpt><trkpt lat="52.417509089067266" lon="10.796182700854288"><ele>65.66666666666667</ele><time>2026-03-24T18:16:51Z</time></trkpt><trkpt lat="52.417433173892064" lon="10.79610910298763"><ele>66.0</ele><time>2026-03-24T18:16:54Z</time></trkpt><trkpt lat="52.41736045070091" lon="10.796022295593891"><ele>65.83333333333333</ele><time>2026-03-24T18:16:57Z</time></trkpt><trkpt lat="52.41728675261305" lon="10.795936852232824"><ele>65.66666666666667</ele><time>2026-03-24T18:17:00Z</time></trkpt><trkpt lat="52.417223513316074" lon="10.795864328387491"><ele>65.5</ele><time>2026-03-24T18:17:03Z</time></trkpt><trkpt lat="52.41716005087419" lon="10.795764154023988"><ele>65.33333333333334</ele><time>2026-03-24T18:17:06Z</time></trkpt><trkpt lat="52.41711569673432" lon="10.795686691037877"><ele>65.16666666666667</ele><time>2026-03-24T18:17:07.999Z</time></trkpt><trkpt lat="52.417078724502744" lon="10.795599296108048"><ele>65.0</ele><time>2026-03-24T18:17:09.999Z</time></trkpt><trkpt lat="52.417046698841546" lon="10.795496550525115"><ele>65.00000000000001</ele><time>2026-03-24T18:17:11.999Z</time></trkpt><trkpt lat="52.41700993757036" lon="10.795390782000792"><ele>65.0</ele><time>2026-03-24T18:17:13.999Z</time></trkpt><trkpt lat="52.416982688615825" lon="10.795281767516423"><ele>65.0</ele><time>2026-03-24T18:17:15.999Z</time></trkpt><trkpt lat="52.416953202000045" lon="10.795184432791697"><ele>65.0</ele><time>2026-03-24T18:17:17.999Z</time></trkpt><trkpt lat="52.41692982503562" lon="10.795083442767728"><ele>65.0</ele><time>2026-03-24T18:17:19.999Z</time></trkpt><trkpt lat="52.41690822702021" lon="10.794981272021227"><ele>65.00000000000001</ele><time>2026-03-24T18:17:21.999Z</time></trkpt><trkpt lat="52.41687511672764" lon="10.794841411398073"><ele>65.0</ele><time>2026-03-24T18:17:24.999Z</time></trkpt><trkpt lat="52.41686692749453" lon="10.794729418021713"><ele>64.66666666666667</ele><time>2026-03-24T18:17:26.999Z</time></trkpt><trkpt lat="52.41686352070481" lon="10.794587454311436"><ele>64.33333333333334</ele><time>2026-03-24T18:17:28.999Z</time></trkpt><trkpt lat="52.41686846219193" lon="10.794441459553683"><ele>64.0</ele><time>2026-03-24T18:17:30.999Z</time></trkpt><trkpt lat="52.41687361360449" lon="10.794312957616809"><ele>63.66666666666667</ele><time>2026-03-24T18:17:32.999Z</time></trkpt><trkpt lat="52.41687335092384" lon="10.79419098075983"><ele>63.333333333333336</ele><time>2026-03-24T18:17:34.999Z</time></trkpt><trkpt lat="52.41687704247419" lon="10.79407591737087"><ele>63.0</ele><time>2026-03-24T18:17:36.999Z</time></trkpt><trkpt lat="52.41688101455094" lon="10.793942077259002"><ele>63.0</ele><time>2026-03-24T18:17:39.999Z</time></trkpt><trkpt lat="52.41687557117828" lon="10.793833784272051"><ele>63.0</ele><time>2026-03-24T18:17:42.999Z</time></trkpt><trkpt lat="52.41666781222089" lon="10.793788362186671"><ele>63.0</ele><time>2026-03-24T18:17:43.999Z</time></trkpt><trkpt lat="52.416669493915094" lon="10.793677884906893"><ele>63.0</ele><time>2026-03-24T18:17:46.999Z</time></trkpt><trkpt lat="52.41667112761822" lon="10.79357056046136"><ele>63.0</ele><time>2026-03-24T18:17:49.999Z</time></trkpt><trkpt lat="52.41667279870462" lon="10.793460780242766"><ele>63.599999999999994</ele><time>2026-03-24T18:17:52.999Z</time></trkpt><trkpt lat="52.416851660011574" lon="10.793334927936051"><ele>64.19999999999999</ele><time>2026-03-24T18:17:56.999Z</time></trkpt><trkpt lat="52.41684809415571" lon="10.793225423741164"><ele>64.8</ele><time>2026-03-24T18:17:59.999Z</time></trkpt><trkpt lat="52.41683439692362" lon="10.793118995768939"><ele>65.39999999999999</ele><time>2026-03-24T18:18:02.999Z</time></trkpt><trkpt lat="52.416831702166704" lon="10.793012872207493"><ele>66.0</ele><time>2026-03-24T18:18:06Z</time></trkpt><trkpt lat="52.416817938158715" lon="10.792878974449158"><ele>66.0</ele><time>2026-03-24T18:18:10Z</time></trkpt><trkpt lat="52.41680632464485" lon="10.792745060152718"><ele>66.0</ele><time>2026-03-24T18:18:14Z</time></trkpt><trkpt lat="52.41679325840215" lon="10.79264094845578"><ele>66.0</ele><time>2026-03-24T18:18:22Z</time></trkpt><trkpt lat="52.41680456323235" lon="10.792532052265416"><ele>66.0</ele><time>2026-03-24T18:18:27Z</time></trkpt><trkpt lat="52.41679349181202" lon="10.792383979090895"><ele>66.0</ele><time>2026-03-24T18:18:30Z</time></trkpt><trkpt lat="52.41678606067093" lon="10.792235795727548"><ele>66.0</ele><time>2026-03-24T18:18:33Z</time></trkpt><trkpt lat="52.41677713229513" lon="10.792105911124478"><ele>66.33333333333333</ele><time>2026-03-24T18:18:36Z</time></trkpt><trkpt lat="52.416776520891354" lon="10.791969769246052"><ele>66.66666666666667</ele><time>2026-03-24T18:18:39Z</time></trkpt><trkpt lat="52.41674129171714" lon="10.791841741543733"><ele>67.0</ele><time>2026-03-24T18:18:42Z</time></trkpt><trkpt lat="52.41672784610649" lon="10.791698802442541"><ele>67.33333333333334</ele><time>2026-03-24T18:18:45Z</time></trkpt><trkpt lat="52.41673019604569" lon="10.791561867731389"><ele>67.66666666666667</ele><time>2026-03-24T18:18:48Z</time></trkpt><trkpt lat="52.416729918890425" lon="10.791423456937245"><ele>68.0</ele><time>2026-03-24T18:18:51Z</time></trkpt><trkpt lat="52.41674006765738" lon="10.791280291108086"><ele>68.16666666666667</ele><time>2026-03-24T18:18:54Z</time></trkpt><trkpt lat="52.41674390166057" lon="10.79113920103072"><ele>68.33333333333334</ele><time>2026-03-24T18:18:57Z</time></trkpt><trkpt lat="52.416745588120236" lon="10.791026672995027"><ele>68.5</ele><time>2026-03-24T18:19:00Z</time></trkpt><trkpt lat="52.41674858508212" lon="10.790918771227425"><ele>68.66666666666667</ele><time>2026-03-24T18:19:03Z</time></trkpt><trkpt lat="52.416742834920996" lon="10.790783847253183"><ele>68.83333333333333</ele><time>2026-03-24T18:19:06Z</time></trkpt><trkpt lat="52.41674045604265" lon="10.79062996903494"><ele>69.0</ele><time>2026-03-24T18:19:09Z</time></trkpt><trkpt lat="52.41674261164837" lon="10.790517302029974"><ele>69.0</ele><time>2026-03-24T18:19:11Z</time></trkpt><trkpt lat="52.4167444868033" lon="10.79040849891798"><ele>69.0</ele><time>2026-03-24T18:19:13Z</time></trkpt><trkpt lat="52.41674516909709" lon="10.790280165423496"><ele>69.0</ele><time>2026-03-24T18:19:15.999Z</time></trkpt><trkpt lat="52.416746089255696" lon="10.790130375172039"><ele>69.0</ele><time>2026-03-24T18:19:18.999Z</time></trkpt><trkpt lat="52.416744011598745" lon="10.790018177858236"><ele>69.0</ele><time>2026-03-24T18:19:20.999Z</time></trkpt><trkpt lat="52.41675138441726" lon="10.789869073595204"><ele>69.0</ele><time>2026-03-24T18:19:23.999Z</time></trkpt><trkpt lat="52.41674532290451" lon="10.789754299388756"><ele>69.28571428571429</ele><time>2026-03-24T18:19:25.999Z</time></trkpt><trkpt lat="52.416740802769" lon="10.78964552658693"><ele>69.57142857142858</ele><time>2026-03-24T18:19:27.999Z</time></trkpt><trkpt lat="52.41673329849376" lon="10.789540837633872"><ele>69.85714285714286</ele><time>2026-03-24T18:19:29.999Z</time></trkpt><trkpt lat="52.416718647438294" lon="10.789399194248734"><ele>70.14285714285714</ele><time>2026-03-24T18:19:32.999Z</time></trkpt><trkpt lat="52.41670201554034" lon="10.789251189118888"><ele>70.42857142857142</ele><time>2026-03-24T18:19:35.999Z</time></trkpt><trkpt lat="52.416702163762814" lon="10.789143451855313"><ele>70.71428571428571</ele><time>2026-03-24T18:19:37.999Z</time></trkpt><trkpt lat="52.41669687995952" lon="10.789031545409404"><ele>71.0</ele><time>2026-03-24T18:19:39.999Z</time></trkpt><trkpt lat="52.41670583576328" lon="10.788925628098221"><ele>71.28571428571428</ele><time>2026-03-24T18:19:41.999Z</time></trkpt><trkpt lat="52.41670349150775" lon="10.788810948290767"><ele>71.57142857142857</ele><time>2026-03-24T18:19:43.999Z</time></trkpt><trkpt lat="52.416705862248094" lon="10.788695068282316"><ele>71.85714285714286</ele><time>2026-03-24T18:19:45.999Z</time></trkpt><trkpt lat="52.41670162567134" lon="10.788576331838257"><ele>72.14285714285714</ele><time>2026-03-24T18:19:47.999Z</time></trkpt><trkpt lat="52.41670386081705" lon="10.788455947830697"><ele>72.42857142857143</ele><time>2026-03-24T18:19:49.999Z</time></trkpt><trkpt lat="52.41670419631608" lon="10.78833232220461"><ele>72.71428571428571</ele><time>2026-03-24T18:19:51.999Z</time></trkpt><trkpt lat="52.41669976304932" lon="10.788220677311918"><ele>73.0</ele><time>2026-03-24T18:19:53.999Z</time></trkpt><trkpt lat="52.41670306964839" lon="10.788079770853082"><ele>73.0</ele><time>2026-03-24T18:19:56.999Z</time></trkpt><trkpt lat="52.416705605687774" lon="10.787932965510306"><ele>73.0</ele><time>2026-03-24T18:19:59.999Z</time></trkpt><trkpt lat="52.41670593313447" lon="10.787824400426782"><ele>73.0</ele><time>2026-03-24T18:20:01.999Z</time></trkpt><trkpt lat="52.416705024772064" lon="10.787686436929832"><ele>73.0</ele><time>2026-03-24T18:20:04.999Z</time></trkpt><trkpt lat="52.416701611850264" lon="10.787575456965255"><ele>73.0</ele><time>2026-03-24T18:20:07.999Z</time></trkpt><trkpt lat="52.416703116362996" lon="10.78744872201117"><ele>73.0</ele><time>2026-03-24T18:20:12Z</time></trkpt><trkpt lat="52.4167035228792" lon="10.787306293564049"><ele>73.0</ele><time>2026-03-24T18:20:15Z</time></trkpt><trkpt lat="52.41671613390047" lon="10.787203131647582"><ele>73.0</ele><time>2026-03-24T18:20:17Z</time></trkpt><trkpt lat="52.416703538299004" lon="10.787095673377815"><ele>73.0</ele><time>2026-03-24T18:20:19Z</time></trkpt><trkpt lat="52.416707880607014" lon="10.786985266907138"><ele>73.0</ele><time>2026-03-24T18:20:21Z</time></trkpt><trkpt lat="52.41670798685091" lon="10.786849845444447"><ele>73.0</ele><time>2026-03-24T18:20:24Z</time></trkpt><trkpt lat="52.416709803907885" lon="10.786708006733907"><ele>73.0</ele><time>2026-03-24T18:20:27Z</time></trkpt><trkpt lat="52.416711092121844" lon="10.786598704348911"><ele>73.0</ele><time>2026-03-24T18:20:29Z</time></trkpt><trkpt lat="52.416712470751065" lon="10.786458773672967"><ele>72.71428571428571</ele><time>2026-03-24T18:20:32Z</time></trkpt><trkpt lat="52.416713147338314" lon="10.786334902420183"><ele>72.42857142857143</ele><time>2026-03-24T18:20:35Z</time></trkpt><trkpt lat="52.41671407494389" lon="10.786217867225025"><ele>72.14285714285714</ele><time>2026-03-24T18:20:38Z</time></trkpt><trkpt lat="52.41672197440454" lon="10.786079749976468"><ele>71.85714285714286</ele><time>2026-03-24T18:20:41Z</time></trkpt><trkpt lat="52.416725859654285" lon="10.785960347381634"><ele>71.57142857142857</ele><time>2026-03-24T18:20:44Z</time></trkpt><trkpt lat="52.41672873115005" lon="10.785853355236862"><ele>71.28571428571428</ele><time>2026-03-24T18:20:47Z</time></trkpt><trkpt lat="52.416735732187355" lon="10.785726849761119"><ele>71.0</ele><time>2026-03-24T18:20:51Z</time></trkpt><trkpt lat="52.416755231119666" lon="10.785584460477478"><ele>71.0</ele><time>2026-03-24T18:20:54Z</time></trkpt><trkpt lat="52.41680595616404" lon="10.785477563465516"><ele>71.0</ele><time>2026-03-24T18:20:56Z</time></trkpt><trkpt lat="52.41681433250191" lon="10.785327513735323"><ele>71.0</ele><time>2026-03-24T18:20:58Z</time></trkpt><trkpt lat="52.416819640739206" lon="10.785166328518953"><ele>71.0</ele><time>2026-03-24T18:21:00Z</time></trkpt><trkpt lat="52.41682769003056" lon="10.785004679035804"><ele>71.0</ele><time>2026-03-24T18:21:02Z</time></trkpt><trkpt lat="52.41683815540443" lon="10.784883543066089"><ele>71.0</ele><time>2026-03-24T18:21:04Z</time></trkpt><trkpt lat="52.416861157598674" lon="10.784765883838272"><ele>71.0</ele><time>2026-03-24T18:21:06Z</time></trkpt><trkpt lat="52.416876430406816" lon="10.78463997261238"><ele>71.0</ele><time>2026-03-24T18:21:08Z</time></trkpt><trkpt lat="52.416884854734136" lon="10.784518761678514"><ele>71.0</ele><time>2026-03-24T18:21:10Z</time></trkpt><trkpt lat="52.41688644889136" lon="10.784399631217386"><ele>71.0</ele><time>2026-03-24T18:21:12Z</time></trkpt><trkpt lat="52.41689825209248" lon="10.784289536225382"><ele>71.0</ele><time>2026-03-24T18:21:14Z</time></trkpt><trkpt lat="52.416933835284766" lon="10.784197410826565"><ele>71.0</ele><time>2026-03-24T18:21:16Z</time></trkpt><trkpt lat="52.41697282080946" lon="10.784067377359563"><ele>71.0</ele><time>2026-03-24T18:21:19Z</time></trkpt><trkpt lat="52.416926149799494" lon="10.783979213104857"><ele>70.66666666666667</ele><time>2026-03-24T18:21:20.999Z</time></trkpt><trkpt lat="52.41689719311236" lon="10.783877496561528"><ele>70.33333333333334</ele><time>2026-03-24T18:21:24.999Z</time></trkpt><trkpt lat="52.41690966912905" lon="10.783744301669662"><ele>70.0</ele><time>2026-03-24T18:22:17Z</time></trkpt><trkpt lat="52.41691014528707" lon="10.783621305784354"><ele>69.66666666666667</ele><time>2026-03-24T18:22:20Z</time></trkpt><trkpt lat="52.4169257016544" lon="10.783502937506285"><ele>69.33333333333333</ele><time>2026-03-24T18:22:23Z</time></trkpt><trkpt lat="52.41694620574099" lon="10.783361193376905"><ele>69.0</ele><time>2026-03-24T18:22:26Z</time></trkpt><trkpt lat="52.4169949420344" lon="10.783243270961956"><ele>69.0</ele><time>2026-03-24T18:22:29Z</time></trkpt><trkpt lat="52.416976928102024" lon="10.783143273230793"><ele>69.0</ele><time>2026-03-24T18:22:31Z</time></trkpt><trkpt lat="52.41694898042468" lon="10.783003754554755"><ele>69.0</ele><time>2026-03-24T18:22:34Z</time></trkpt><trkpt lat="52.41690548677363" lon="10.782926804236423"><ele>69.0</ele><time>2026-03-24T18:22:36Z</time></trkpt><trkpt lat="52.41685488820999" lon="10.782846672049846"><ele>69.0</ele><time>2026-03-24T18:22:38Z</time></trkpt><trkpt lat="52.41679023796365" lon="10.782787670827407"><ele>69.0</ele><time>2026-03-24T18:22:40Z</time></trkpt><trkpt lat="52.41671234547459" lon="10.782768268024551"><ele>69.0</ele><time>2026-03-24T18:22:42Z</time></trkpt><trkpt lat="52.41663450616076" lon="10.782769542988154"><ele>69.0</ele><time>2026-03-24T18:22:44Z</time></trkpt><trkpt lat="52.41655538600797" lon="10.782792515327856"><ele>69.0</ele><time>2026-03-24T18:22:46Z</time></trkpt><trkpt lat="52.416477051766975" lon="10.782840144841416"><ele>69.0</ele><time>2026-03-24T18:22:48Z</time></trkpt><trkpt lat="52.41640420861184" lon="10.782904989627513"><ele>69.0</ele><time>2026-03-24T18:22:50Z</time></trkpt><trkpt lat="52.41632544506156" lon="10.782955365546698"><ele>69.0</ele><time>2026-03-24T18:22:52Z</time></trkpt><trkpt lat="52.416240988811886" lon="10.782994452789005"><ele>69.0</ele><time>2026-03-24T18:22:54Z</time></trkpt><trkpt lat="52.41615331512397" lon="10.78303237571614"><ele>69.4</ele><time>2026-03-24T18:22:56Z</time></trkpt><trkpt lat="52.41606339223805" lon="10.783067417604848"><ele>69.80000000000001</ele><time>2026-03-24T18:22:58Z</time></trkpt><trkpt lat="52.41597383886575" lon="10.78309998111081"><ele>70.19999999999999</ele><time>2026-03-24T18:23:00Z</time></trkpt><trkpt lat="52.41588276580413" lon="10.783129373209293"><ele>70.6</ele><time>2026-03-24T18:23:02Z</time></trkpt><trkpt lat="52.415789784599525" lon="10.783152775185771"><ele>71.0</ele><time>2026-03-24T18:23:04Z</time></trkpt><trkpt lat="52.41569947764424" lon="10.783176920237388"><ele>71.0</ele><time>2026-03-24T18:23:06Z</time></trkpt><trkpt lat="52.41560239713496" lon="10.783194121473706"><ele>71.0</ele><time>2026-03-24T18:23:08Z</time></trkpt><trkpt lat="52.4155077116325" lon="10.783206131632216"><ele>71.0</ele><time>2026-03-24T18:23:10Z</time></trkpt><trkpt lat="52.415417292862536" lon="10.783216594042422"><ele>71.0</ele><time>2026-03-24T18:23:12Z</time></trkpt><trkpt lat="52.415331909736565" lon="10.783222172596055"><ele>71.0</ele><time>2026-03-24T18:23:14Z</time></trkpt><trkpt lat="52.41525415846097" lon="10.783219780292299"><ele>71.0</ele><time>2026-03-24T18:23:16Z</time></trkpt><trkpt lat="52.41517305646449" lon="10.783204758737895"><ele>71.33333333333334</ele><time>2026-03-24T18:23:18Z</time></trkpt><trkpt lat="52.41509299350861" lon="10.783191811536827"><ele>71.66666666666667</ele><time>2026-03-24T18:23:20Z</time></trkpt><trkpt lat="52.415009666388265" lon="10.783179252970578"><ele>72.0</ele><time>2026-03-24T18:23:22Z</time></trkpt><trkpt lat="52.41492925272935" lon="10.78315298260631"><ele>72.33333333333333</ele><time>2026-03-24T18:23:24Z</time></trkpt><trkpt lat="52.4148482838952" lon="10.783128763628953"><ele>72.66666666666666</ele><time>2026-03-24T18:23:25.999Z</time></trkpt><trkpt lat="52.41476983241625" lon="10.783107125151915"><ele>73.0</ele><time>2026-03-24T18:23:27.999Z</time></trkpt><trkpt lat="52.41469384298574" lon="10.783092367286267"><ele>73.0</ele><time>2026-03-24T18:23:29.999Z</time></trkpt><trkpt lat="52.41461930467036" lon="10.783083798402957"><ele>73.0</ele><time>2026-03-24T18:23:31.999Z</time></trkpt><trkpt lat="52.414549348536575" lon="10.783075060212452"><ele>73.0</ele><time>2026-03-24T18:23:33.999Z</time></trkpt><trkpt lat="52.414475984572576" lon="10.783083429858449"><ele>73.0</ele><time>2026-03-24T18:23:35.999Z</time></trkpt><trkpt lat="52.41440720078303" lon="10.783071619502772"><ele>73.0</ele><time>2026-03-24T18:23:37.999Z</time></trkpt><trkpt lat="52.41433728935097" lon="10.783046871302531"><ele>73.0</ele><time>2026-03-24T18:23:39.999Z</time></trkpt><trkpt lat="52.41426745403317" lon="10.78303138689398"><ele>73.0</ele><time>2026-03-24T18:23:41.999Z</time></trkpt><trkpt lat="52.41420393452928" lon="10.78299325684337"><ele>73.0</ele><time>2026-03-24T18:23:43.999Z</time></trkpt><trkpt lat="52.414113380117186" lon="10.782970411714379"><ele>73.0</ele><time>2026-03-24T18:23:46.999Z</time></trkpt><trkpt lat="52.41402209095999" lon="10.782922953803826"><ele>73.0</ele><time>2026-03-24T18:23:49.999Z</time></trkpt><trkpt lat="52.413957251455464" lon="10.782890323165963"><ele>73.0</ele><time>2026-03-24T18:23:51.999Z</time></trkpt><trkpt lat="52.41388997441371" lon="10.782853593328"><ele>73.0</ele><time>2026-03-24T18:23:53.999Z</time></trkpt><trkpt lat="52.41381924132472" lon="10.78281597153612"><ele>73.0</ele><time>2026-03-24T18:23:55.999Z</time></trkpt><trkpt lat="52.413747897645415" lon="10.782777177581057"><ele>72.83333333333333</ele><time>2026-03-24T18:23:57.999Z</time></trkpt><trkpt lat="52.41367478317098" lon="10.782733546650933"><ele>72.66666666666666</ele><time>2026-03-24T18:23:59.999Z</time></trkpt><trkpt lat="52.4136017521786" lon="10.78269171805601"><ele>72.5</ele><time>2026-03-24T18:24:01.999Z</time></trkpt><trkpt lat="52.41353257843011" lon="10.782644293746372"><ele>72.33333333333333</ele><time>2026-03-24T18:24:03.999Z</time></trkpt><trkpt lat="52.41346381281597" lon="10.782596225224925"><ele>72.16666666666667</ele><time>2026-03-24T18:24:05.999Z</time></trkpt><trkpt lat="52.4133939665362" lon="10.782549950407391"><ele>72.0</ele><time>2026-03-24T18:24:07.999Z</time></trkpt><trkpt lat="52.41332283345313" lon="10.782504725825817"><ele>72.0</ele><time>2026-03-24T18:24:09.999Z</time></trkpt><trkpt lat="52.41325265008006" lon="10.782445878998995"><ele>72.0</ele><time>2026-03-24T18:24:11.999Z</time></trkpt><trkpt lat="52.4131835586686" lon="10.782387568173569"><ele>72.0</ele><time>2026-03-24T18:24:13.999Z</time></trkpt><trkpt lat="52.4131183042704" lon="10.782318744814129"><ele>72.0</ele><time>2026-03-24T18:24:15.999Z</time></trkpt><trkpt lat="52.41304007882235" lon="10.78226550073727"><ele>72.0</ele><time>2026-03-24T18:24:17.999Z</time></trkpt><trkpt lat="52.4129633661834" lon="10.782215594303299"><ele>72.0</ele><time>2026-03-24T18:24:19.999Z</time></trkpt><trkpt lat="52.41288316884406" lon="10.782194866903714"><ele>72.0</ele><time>2026-03-24T18:24:22Z</time></trkpt><trkpt lat="52.41281006200265" lon="10.782135990935137"><ele>72.0</ele><time>2026-03-24T18:24:24Z</time></trkpt><trkpt lat="52.41273410516511" lon="10.7820931675922"><ele>72.0</ele><time>2026-03-24T18:24:26Z</time></trkpt><trkpt lat="52.41265793168959" lon="10.782043210858612"><ele>72.0</ele><time>2026-03-24T18:24:28Z</time></trkpt><trkpt lat="52.41258572956757" lon="10.78198895044434"><ele>72.0</ele><time>2026-03-24T18:24:30Z</time></trkpt><trkpt lat="52.412514572023944" lon="10.781937151476388"><ele>72.0</ele><time>2026-03-24T18:24:32Z</time></trkpt><trkpt lat="52.412441946635525" lon="10.781879939307803"><ele>72.66666666666667</ele><time>2026-03-24T18:24:34Z</time></trkpt><trkpt lat="52.41236801693705" lon="10.78181875426285"><ele>73.33333333333333</ele><time>2026-03-24T18:24:36Z</time></trkpt><trkpt lat="52.41229854734674" lon="10.781749162673346"><ele>74.0</ele><time>2026-03-24T18:24:38Z</time></trkpt><trkpt lat="52.41222871687727" lon="10.781692493887846"><ele>74.66666666666666</ele><time>2026-03-24T18:24:40Z</time></trkpt><trkpt lat="52.412157917669305" lon="10.78164571055668"><ele>75.33333333333333</ele><time>2026-03-24T18:24:42Z</time></trkpt><trkpt lat="52.412087787135505" lon="10.78159346366868"><ele>76.0</ele><time>2026-03-24T18:24:44Z</time></trkpt><trkpt lat="52.41201629242554" lon="10.781548230168303"><ele>76.14285714285714</ele><time>2026-03-24T18:24:46Z</time></trkpt><trkpt lat="52.41194808166057" lon="10.7815016826797"><ele>76.28571428571429</ele><time>2026-03-24T18:24:48Z</time></trkpt><trkpt lat="52.41187980569009" lon="10.781451851015449"><ele>76.42857142857143</ele><time>2026-03-24T18:24:50Z</time></trkpt><trkpt lat="52.41181493042346" lon="10.781401586351311"><ele>76.57142857142857</ele><time>2026-03-24T18:24:52Z</time></trkpt><trkpt lat="52.411748348726306" lon="10.781358819991757"><ele>76.71428571428572</ele><time>2026-03-24T18:24:54Z</time></trkpt><trkpt lat="52.41168839294145" lon="10.7813182388255"><ele>76.85714285714286</ele><time>2026-03-24T18:24:56Z</time></trkpt><trkpt lat="52.41161315455798" lon="10.781273378935984"><ele>77.0</ele><time>2026-03-24T18:24:59Z</time></trkpt><trkpt lat="52.41153932836155" lon="10.781231235756735"><ele>77.0</ele><time>2026-03-24T18:25:02Z</time></trkpt><trkpt lat="52.41146149835814" lon="10.781183315490315"><ele>77.0</ele><time>2026-03-24T18:25:05Z</time></trkpt><trkpt lat="52.41137972650743" lon="10.781117153722908"><ele>77.0</ele><time>2026-03-24T18:25:08Z</time></trkpt><trkpt lat="52.41128828813965" lon="10.78105819263445"><ele>77.0</ele><time>2026-03-24T18:25:11Z</time></trkpt><trkpt lat="52.4112342942138" lon="10.780999340012668"><ele>77.0</ele><time>2026-03-24T18:25:13Z</time></trkpt><trkpt lat="52.41118421365085" lon="10.780923622270834"><ele>77.0</ele><time>2026-03-24T18:25:15Z</time></trkpt><trkpt lat="52.411139067657906" lon="10.780849675366307"><ele>77.16666666666667</ele><time>2026-03-24T18:25:17Z</time></trkpt><trkpt lat="52.4110535434264" lon="10.78079668205096"><ele>77.33333333333334</ele><time>2026-03-24T18:25:20Z</time></trkpt><trkpt lat="52.41098800143708" lon="10.780842790676186"><ele>77.5</ele><time>2026-03-24T18:25:22Z</time></trkpt><trkpt lat="52.410914699170085" lon="10.780840494128007"><ele>77.66666666666667</ele><time>2026-03-24T18:25:25Z</time></trkpt><trkpt lat="52.41085516787502" lon="10.780796600321072"><ele>77.83333333333333</ele><time>2026-03-24T18:26:43Z</time></trkpt><trkpt lat="52.41076538405712" lon="10.7807419414229"><ele>78.0</ele><time>2026-03-24T18:26:46Z</time></trkpt><trkpt lat="52.410695786234626" lon="10.78069283001565"><ele>78.0</ele><time>2026-03-24T18:26:48Z</time></trkpt><trkpt lat="52.410620805323525" lon="10.780649512501663"><ele>78.0</ele><time>2026-03-24T18:26:50Z</time></trkpt><trkpt lat="52.410552384297574" lon="10.780572178157893"><ele>78.0</ele><time>2026-03-24T18:26:52Z</time></trkpt><trkpt lat="52.41049682356233" lon="10.78045845516098"><ele>78.0</ele><time>2026-03-24T18:26:54Z</time></trkpt><trkpt lat="52.41040140680377" lon="10.780457976290903"><ele>78.0</ele><time>2026-03-24T18:26:56Z</time></trkpt><trkpt lat="52.41031735354083" lon="10.780419094633306"><ele>78.0</ele><time>2026-03-24T18:26:58Z</time></trkpt><trkpt lat="52.410236059886586" lon="10.780365449737634"><ele>77.83333333333333</ele><time>2026-03-24T18:27:00Z</time></trkpt><trkpt lat="52.410152850928434" lon="10.780322106559634"><ele>77.66666666666667</ele><time>2026-03-24T18:27:02Z</time></trkpt><trkpt lat="52.41007408652166" lon="10.780271369443973"><ele>77.5</ele><time>2026-03-24T18:27:04Z</time></trkpt><trkpt lat="52.40999255043637" lon="10.780225529659967"><ele>77.33333333333334</ele><time>2026-03-24T18:27:06Z</time></trkpt><trkpt lat="52.40991678915679" lon="10.780188533744864"><ele>77.16666666666667</ele><time>2026-03-24T18:27:08Z</time></trkpt><trkpt lat="52.40985357838082" lon="10.780144281297714"><ele>77.0</ele><time>2026-03-24T18:27:10Z</time></trkpt><trkpt lat="52.409789632916706" lon="10.780106511050873"><ele>76.85714285714286</ele><time>2026-03-24T18:27:12Z</time></trkpt><trkpt lat="52.40971901628586" lon="10.780068213740545"><ele>76.71428571428572</ele><time>2026-03-24T18:27:14Z</time></trkpt><trkpt lat="52.409650070108185" lon="10.780017170063417"><ele>76.57142857142857</ele><time>2026-03-24T18:27:16Z</time></trkpt><trkpt lat="52.409586511747264" lon="10.77996534816279"><ele>76.42857142857143</ele><time>2026-03-24T18:27:18Z</time></trkpt><trkpt lat="52.409517427994025" lon="10.779929436595758"><ele>76.28571428571429</ele><time>2026-03-24T18:27:20Z</time></trkpt><trkpt lat="52.40944489354664" lon="10.779895808216269"><ele>76.14285714285714</ele><time>2026-03-24T18:27:22Z</time></trkpt><trkpt lat="52.40937724397007" lon="10.77985855268602"><ele>76.0</ele><time>2026-03-24T18:27:24Z</time></trkpt><trkpt lat="52.40931620252787" lon="10.779817138326107"><ele>75.16666666666666</ele><time>2026-03-24T18:27:26Z</time></trkpt><trkpt lat="52.409232226557606" lon="10.779767083718749"><ele>74.33333333333333</ele><time>2026-03-24T18:27:29Z</time></trkpt><trkpt lat="52.4091477584392" lon="10.779708190660253"><ele>73.5</ele><time>2026-03-24T18:27:32Z</time></trkpt><trkpt lat="52.40907486753462" lon="10.779656192577535"><ele>72.66666666666667</ele><time>2026-03-24T18:27:34.999Z</time></trkpt><trkpt lat="52.40900427416529" lon="10.779608076106188"><ele>71.83333333333334</ele><time>2026-03-24T18:27:37.999Z</time></trkpt><trkpt lat="52.4089277854559" lon="10.779561854182466"><ele>71.0</ele><time>2026-03-24T18:27:41.999Z</time></trkpt><trkpt lat="52.408865129436066" lon="10.779518947217985"><ele>71.14285714285714</ele><time>2026-03-24T18:27:44.999Z</time></trkpt><trkpt lat="52.40880709913692" lon="10.779452746439304"><ele>71.28571428571428</ele><time>2026-03-24T18:27:48.999Z</time></trkpt><trkpt lat="52.408763609780685" lon="10.779541458181008"><ele>71.42857142857143</ele><time>2026-03-24T18:27:55.999Z</time></trkpt><trkpt lat="52.40874243004932" lon="10.779677496930224"><ele>71.57142857142857</ele><time>2026-03-24T18:27:58.999Z</time></trkpt><trkpt lat="52.40872029171631" lon="10.779774904144771"><ele>71.71428571428572</ele><time>2026-03-24T18:28:00.999Z</time></trkpt><trkpt lat="52.408678155384855" lon="10.779854717537"><ele>71.85714285714286</ele><time>2026-03-24T18:28:02.999Z</time></trkpt><trkpt lat="52.40859943210628" lon="10.779901258278443"><ele>72.0</ele><time>2026-03-24T18:28:05.999Z</time></trkpt><trkpt lat="52.40856736340096" lon="10.780015305742253"><ele>72.0</ele><time>2026-03-24T18:28:08.999Z</time></trkpt><trkpt lat="52.40858628694764" lon="10.780158367227404"><ele>72.0</ele><time>2026-03-24T18:28:11.999Z</time></trkpt><trkpt lat="52.40858026336853" lon="10.780262137104474"><ele>72.0</ele><time>2026-03-24T18:28:13.999Z</time></trkpt><trkpt lat="52.408558799854895" lon="10.780372983609473"><ele>72.0</ele><time>2026-03-24T18:28:15.999Z</time></trkpt><trkpt lat="52.40851823743522" lon="10.780487559433427"><ele>72.0</ele><time>2026-03-24T18:28:17.999Z</time></trkpt><trkpt lat="52.408466050406886" lon="10.780586900069444"><ele>72.0</ele><time>2026-03-24T18:28:19.999Z</time></trkpt><trkpt lat="52.40842428531566" lon="10.780690919220415"><ele>72.16666666666667</ele><time>2026-03-24T18:28:21.999Z</time></trkpt><trkpt lat="52.40837654118791" lon="10.78077753122663"><ele>72.33333333333333</ele><time>2026-03-24T18:28:23.999Z</time></trkpt><trkpt lat="52.40831876412857" lon="10.780863000658146"><ele>72.5</ele><time>2026-03-24T18:28:25.999Z</time></trkpt><trkpt lat="52.40825854142328" lon="10.78095877722164"><ele>72.66666666666666</ele><time>2026-03-24T18:28:27.999Z</time></trkpt><trkpt lat="52.408201446282916" lon="10.781044980776688"><ele>72.83333333333333</ele><time>2026-03-24T18:28:29.999Z</time></trkpt><trkpt lat="52.40814705016882" lon="10.781112330004511"><ele>73.0</ele><time>2026-03-24T18:28:31.999Z</time></trkpt><trkpt lat="52.40807469544598" lon="10.781202167757739"><ele>73.57142857142857</ele><time>2026-03-24T18:28:35Z</time></trkpt><trkpt lat="52.408024043641895" lon="10.781272901583687"><ele>74.14285714285714</ele><time>2026-03-24T18:28:37Z</time></trkpt><trkpt lat="52.40796845021671" lon="10.781330729672268"><ele>74.71428571428572</ele><time>2026-03-24T18:28:39Z</time></trkpt><trkpt lat="52.40791059834824" lon="10.781388740298615"><ele>75.28571428571428</ele><time>2026-03-24T18:28:41Z</time></trkpt><trkpt lat="52.40785048560031" lon="10.781445569838125"><ele>75.85714285714286</ele><time>2026-03-24T18:28:43Z</time></trkpt><trkpt lat="52.40779174714822" lon="10.781508855741864"><ele>76.42857142857143</ele><time>2026-03-24T18:28:45Z</time></trkpt><trkpt lat="52.40772912732328" lon="10.78156696164816"><ele>77.0</ele><time>2026-03-24T18:28:47Z</time></trkpt><trkpt lat="52.40766533827292" lon="10.781608964479334"><ele>77.0</ele><time>2026-03-24T18:28:49Z</time></trkpt><trkpt lat="52.40759909179493" lon="10.781657340650483"><ele>77.0</ele><time>2026-03-24T18:28:51Z</time></trkpt><trkpt lat="52.40753027243453" lon="10.7816877376724"><ele>77.0</ele><time>2026-03-24T18:28:53Z</time></trkpt><trkpt lat="52.407463106791106" lon="10.781724635610448"><ele>77.0</ele><time>2026-03-24T18:28:55Z</time></trkpt><trkpt lat="52.407401214698716" lon="10.78175796357941"><ele>77.0</ele><time>2026-03-24T18:28:57Z</time></trkpt><trkpt lat="52.40732408253529" lon="10.781801277254154"><ele>77.0</ele><time>2026-03-24T18:29:00Z</time></trkpt><trkpt lat="52.40724052937183" lon="10.781846453101918"><ele>77.0</ele><time>2026-03-24T18:29:04Z</time></trkpt><trkpt lat="52.40716702198426" lon="10.781889748040955"><ele>77.33333333333334</ele><time>2026-03-24T18:29:07Z</time></trkpt><trkpt lat="52.40709075179536" lon="10.7819270491697"><ele>77.66666666666667</ele><time>2026-03-24T18:29:10Z</time></trkpt><trkpt lat="52.40701269360704" lon="10.781954639033213"><ele>78.0</ele><time>2026-03-24T18:29:13Z</time></trkpt><trkpt lat="52.40693574499107" lon="10.781994287985851"><ele>78.33333333333333</ele><time>2026-03-24T18:29:16Z</time></trkpt><trkpt lat="52.40687340889201" lon="10.78203449377994"><ele>78.66666666666666</ele><time>2026-03-24T18:29:19Z</time></trkpt><trkpt lat="52.406794370770115" lon="10.782076312110219"><ele>79.0</ele><time>2026-03-24T18:29:23Z</time></trkpt><trkpt lat="52.406731717298534" lon="10.782102096318521"><ele>79.00000000000001</ele><time>2026-03-24T18:29:26Z</time></trkpt><trkpt lat="52.406666584342524" lon="10.782134042206517"><ele>79.0</ele><time>2026-03-24T18:29:29Z</time></trkpt><trkpt lat="52.406598512798766" lon="10.78216309988556"><ele>79.0</ele><time>2026-03-24T18:29:32Z</time></trkpt><trkpt lat="52.40653031563351" lon="10.78219897728013"><ele>79.0</ele><time>2026-03-24T18:29:35Z</time></trkpt><trkpt lat="52.40646640493825" lon="10.78224033413942"><ele>79.0</ele><time>2026-03-24T18:29:38Z</time></trkpt><trkpt lat="52.40639381327125" lon="10.782260802955102"><ele>79.00000000000001</ele><time>2026-03-24T18:29:41Z</time></trkpt><trkpt lat="52.406329417175094" lon="10.782308314627226"><ele>79.0</ele><time>2026-03-24T18:29:43.999Z</time></trkpt><trkpt lat="52.406262768422" lon="10.782307583248352"><ele>79.0</ele><time>2026-03-24T18:29:46.999Z</time></trkpt><trkpt lat="52.406206231374746" lon="10.782247964063442"><ele>79.0</ele><time>2026-03-24T18:29:49.999Z</time></trkpt><trkpt lat="52.406176354441875" lon="10.782145067724825"><ele>79.0</ele><time>2026-03-24T18:29:52.999Z</time></trkpt><trkpt lat="52.40614887767755" lon="10.782012650548298"><ele>79.0</ele><time>2026-03-24T18:29:56.999Z</time></trkpt><trkpt lat="52.40612328020885" lon="10.781879420184202"><ele>79.0</ele><time>2026-03-24T18:29:59.999Z</time></trkpt><trkpt lat="52.406086281285354" lon="10.78172214465915"><ele>79.0</ele><time>2026-03-24T18:30:02.999Z</time></trkpt><trkpt lat="52.406058889532424" lon="10.781612938174067"><ele>79.0</ele><time>2026-03-24T18:30:04.999Z</time></trkpt><trkpt lat="52.406032955643155" lon="10.781508083595599"><ele>79.0</ele><time>2026-03-24T18:30:06.999Z</time></trkpt><trkpt lat="52.405998720364714" lon="10.781398583857493"><ele>79.0</ele><time>2026-03-24T18:30:08.999Z</time></trkpt><trkpt lat="52.40597031577969" lon="10.781285356530464"><ele>79.0</ele><time>2026-03-24T18:30:10.999Z</time></trkpt><trkpt lat="52.405937829424175" lon="10.781168458895463"><ele>79.0</ele><time>2026-03-24T18:30:12.999Z</time></trkpt><trkpt lat="52.4059032706951" lon="10.781048358515767"><ele>79.0</ele><time>2026-03-24T18:30:14.999Z</time></trkpt><trkpt lat="52.40587001984893" lon="10.78092827143767"><ele>79.0</ele><time>2026-03-24T18:30:16.999Z</time></trkpt><trkpt lat="52.40583621011685" lon="10.780818492533527"><ele>79.0</ele><time>2026-03-24T18:30:18.999Z</time></trkpt><trkpt lat="52.40580591656641" lon="10.780709017827768"><ele>79.0</ele><time>2026-03-24T18:30:20.999Z</time></trkpt><trkpt lat="52.40576998218311" lon="10.780595101686325"><ele>79.0</ele><time>2026-03-24T18:30:22.999Z</time></trkpt><trkpt lat="52.40572965359677" lon="10.780481480044221"><ele>79.0</ele><time>2026-03-24T18:30:24.999Z</time></trkpt><trkpt lat="52.40569113037415" lon="10.780357158724057"><ele>79.0</ele><time>2026-03-24T18:30:26.999Z</time></trkpt><trkpt lat="52.405645637954684" lon="10.78023722436102"><ele>79.0</ele><time>2026-03-24T18:30:28.999Z</time></trkpt><trkpt lat="52.405604154262136" lon="10.780113233621321"><ele>79.0</ele><time>2026-03-24T18:30:30.999Z</time></trkpt><trkpt lat="52.40556421661515" lon="10.779993288126741"><ele>79.0</ele><time>2026-03-24T18:30:32.999Z</time></trkpt><trkpt lat="52.40552234909704" lon="10.779885293929109"><ele>79.0</ele><time>2026-03-24T18:30:34.999Z</time></trkpt><trkpt lat="52.405482945588126" lon="10.779761459105597"><ele>79.0</ele><time>2026-03-24T18:30:36.999Z</time></trkpt><trkpt lat="52.405435383942795" lon="10.779637567124958"><ele>79.0</ele><time>2026-03-24T18:30:38.999Z</time></trkpt><trkpt lat="52.405385598517206" lon="10.779512529563691"><ele>79.0</ele><time>2026-03-24T18:30:41Z</time></trkpt><trkpt lat="52.40533724497606" lon="10.779384896921107"><ele>79.0</ele><time>2026-03-24T18:30:43Z</time></trkpt><trkpt lat="52.405286135087806" lon="10.779263935773"><ele>79.0</ele><time>2026-03-24T18:30:45Z</time></trkpt><trkpt lat="52.40524529938415" lon="10.779147136111721"><ele>79.0</ele><time>2026-03-24T18:30:47Z</time></trkpt><trkpt lat="52.40520856272379" lon="10.779043820625656"><ele>79.0</ele><time>2026-03-24T18:30:49Z</time></trkpt><trkpt lat="52.40517679646356" lon="10.778943301224341"><ele>79.0</ele><time>2026-03-24T18:30:51Z</time></trkpt><trkpt lat="52.40514229499208" lon="10.778834535917396"><ele>78.83333333333333</ele><time>2026-03-24T18:30:53Z</time></trkpt><trkpt lat="52.405109953155424" lon="10.778719372343351"><ele>78.66666666666666</ele><time>2026-03-24T18:30:55Z</time></trkpt><trkpt lat="52.405074538474125" lon="10.778608452610136"><ele>78.5</ele><time>2026-03-24T18:30:57Z</time></trkpt><trkpt lat="52.4050419122995" lon="10.778494508663972"><ele>78.33333333333333</ele><time>2026-03-24T18:30:59Z</time></trkpt><trkpt lat="52.40501306037939" lon="10.778384498926291"><ele>78.16666666666667</ele><time>2026-03-24T18:31:01Z</time></trkpt><trkpt lat="52.404984009312095" lon="10.778284435696692"><ele>78.0</ele><time>2026-03-24T18:31:03Z</time></trkpt><trkpt lat="52.40495241021367" lon="10.77815454699652"><ele>78.0</ele><time>2026-03-24T18:31:06Z</time></trkpt><trkpt lat="52.40494088572446" lon="10.778048881596508"><ele>78.0</ele><time>2026-03-24T18:31:08Z</time></trkpt><trkpt lat="52.404917187039906" lon="10.777932287104298"><ele>78.0</ele><time>2026-03-24T18:31:10Z</time></trkpt><trkpt lat="52.404888701992434" lon="10.777822483232072"><ele>78.0</ele><time>2026-03-24T18:31:12Z</time></trkpt><trkpt lat="52.40486445418666" lon="10.77767274147629"><ele>78.0</ele><time>2026-03-24T18:31:15Z</time></trkpt><trkpt lat="52.404808491095885" lon="10.777585100995257"><ele>78.0</ele><time>2026-03-24T18:31:17Z</time></trkpt><trkpt lat="52.40475080398816" lon="10.777497566973867"><ele>77.83333333333333</ele><time>2026-03-24T18:31:19Z</time></trkpt><trkpt lat="52.40469846974115" lon="10.777421639229608"><ele>77.66666666666667</ele><time>2026-03-24T18:31:21Z</time></trkpt><trkpt lat="52.40461038587297" lon="10.777391996657007"><ele>77.5</ele><time>2026-03-24T18:31:24Z</time></trkpt><trkpt lat="52.40452353714175" lon="10.777409399260529"><ele>77.33333333333334</ele><time>2026-03-24T18:31:27Z</time></trkpt><trkpt lat="52.404430554311965" lon="10.77739525857441"><ele>77.16666666666667</ele><time>2026-03-24T18:31:30Z</time></trkpt><trkpt lat="52.40433821243739" lon="10.777392321094695"><ele>77.0</ele><time>2026-03-24T18:31:33Z</time></trkpt><trkpt lat="52.40425651683562" lon="10.777375061018192"><ele>77.42857142857143</ele><time>2026-03-24T18:31:35.999Z</time></trkpt><trkpt lat="52.404183043836596" lon="10.777364124382224"><ele>77.85714285714286</ele><time>2026-03-24T18:31:38.999Z</time></trkpt><trkpt lat="52.40411281116484" lon="10.777352665571417"><ele>78.28571428571428</ele><time>2026-03-24T18:31:41.999Z</time></trkpt><trkpt lat="52.404046052985784" lon="10.777348328955702"><ele>78.71428571428572</ele><time>2026-03-24T18:31:44.999Z</time></trkpt><trkpt lat="52.40397950510165" lon="10.777333189818892"><ele>79.14285714285714</ele><time>2026-03-24T18:31:47.999Z</time></trkpt><trkpt lat="52.403911878408316" lon="10.777318141062269"><ele>79.57142857142857</ele><time>2026-03-24T18:31:50.999Z</time></trkpt><trkpt lat="52.40384599989695" lon="10.777299658950355"><ele>80.0</ele><time>2026-03-24T18:31:53.999Z</time></trkpt><trkpt lat="52.40377301611278" lon="10.777281116188275"><ele>80.5</ele><time>2026-03-24T18:31:56.999Z</time></trkpt><trkpt lat="52.40369338725695" lon="10.777259998941688"><ele>81.0</ele><time>2026-03-24T18:31:59.999Z</time></trkpt><trkpt lat="52.40361669446608" lon="10.777229165471748"><ele>81.5</ele><time>2026-03-24T18:32:02.999Z</time></trkpt><trkpt lat="52.40354384624928" lon="10.777205962560464"><ele>82.0</ele><time>2026-03-24T18:32:05.999Z</time></trkpt><trkpt lat="52.40346890560162" lon="10.777175796790582"><ele>82.5</ele><time>2026-03-24T18:32:08.999Z</time></trkpt><trkpt lat="52.40339628269172" lon="10.777138654924128"><ele>83.0</ele><time>2026-03-24T18:32:11.999Z</time></trkpt><trkpt lat="52.40332918387578" lon="10.777109716087981"><ele>83.0</ele><time>2026-03-24T18:32:14.999Z</time></trkpt><trkpt lat="52.40325533965853" lon="10.777079406167928"><ele>83.0</ele><time>2026-03-24T18:32:17.999Z</time></trkpt><trkpt lat="52.40317279808299" lon="10.777046668051915"><ele>83.0</ele><time>2026-03-24T18:32:20.999Z</time></trkpt><trkpt lat="52.40310652213108" lon="10.777033058358551"><ele>83.0</ele><time>2026-03-24T18:32:23.999Z</time></trkpt><trkpt lat="52.4030391902861" lon="10.777013849037798"><ele>83.0</ele><time>2026-03-24T18:32:26.999Z</time></trkpt><trkpt lat="52.40302515993124" lon="10.776881054665983"><ele>83.0</ele><time>2026-03-24T18:32:29.999Z</time></trkpt><trkpt lat="52.40302581628456" lon="10.776763859372176"><ele>81.0</ele><time>2026-03-24T18:32:32.999Z</time></trkpt><trkpt lat="52.40302216678245" lon="10.776627375216009"><ele>81.0</ele><time>2026-03-24T18:32:36.999Z</time></trkpt><trkpt lat="52.40302004556484" lon="10.776493875552376"><ele>81.0</ele><time>2026-03-24T18:32:40.999Z</time></trkpt><trkpt lat="52.403016868638595" lon="10.776390599165069"><ele>81.0</ele><time>2026-03-24T18:32:43.999Z</time></trkpt><trkpt lat="52.40301256190088" lon="10.776273706161254"><ele>81.0</ele><time>2026-03-24T18:32:49Z</time></trkpt></trkseg></trk></gpx>